﻿<?xml version="1.0" encoding="utf-8"?><gpx creator="Garmin Desktop App" version="1.1" xsi:schemaLocation="http://www.topografix.com/GPX/1/1 http://www.topografix.com/GPX/1/1/gpx.xsd http://www.garmin.com/xmlschemas/WaypointExtension/v1 http://www8.garmin.com/xmlschemas/WaypointExtensionv1.xsd http://www.garmin.com/xmlschemas/TrackPointExtension/v1 http://www.garmin.com/xmlschemas/TrackPointExtensionv1.xsd http://www.garmin.com/xmlschemas/GpxExtensions/v3 http://www8.garmin.com/xmlschemas/GpxExtensionsv3.xsd http://www.garmin.com/xmlschemas/ActivityExtension/v1 http://www8.garmin.com/xmlschemas/ActivityExtensionv1.xsd http://www.garmin.com/xmlschemas/AdventuresExtensions/v1 http://www8.garmin.com/xmlschemas/AdventuresExtensionv1.xsd http://www.garmin.com/xmlschemas/PressureExtension/v1 http://www.garmin.com/xmlschemas/PressureExtensionv1.xsd http://www.garmin.com/xmlschemas/TripExtensions/v1 http://www.garmin.com/xmlschemas/TripExtensionsv1.xsd http://www.garmin.com/xmlschemas/TripMetaDataExtensions/v1 http://www.garmin.com/xmlschemas/TripMetaDataExtensionsv1.xsd http://www.garmin.com/xmlschemas/ViaPointTransportationModeExtensions/v1 http://www.garmin.com/xmlschemas/ViaPointTransportationModeExtensionsv1.xsd http://www.garmin.com/xmlschemas/CreationTimeExtension/v1 http://www.garmin.com/xmlschemas/CreationTimeExtensionsv1.xsd http://www.garmin.com/xmlschemas/AccelerationExtension/v1 http://www.garmin.com/xmlschemas/AccelerationExtensionv1.xsd http://www.garmin.com/xmlschemas/PowerExtension/v1 http://www.garmin.com/xmlschemas/PowerExtensionv1.xsd http://www.garmin.com/xmlschemas/VideoExtension/v1 http://www.garmin.com/xmlschemas/VideoExtensionv1.xsd" xmlns="http://www.topografix.com/GPX/1/1" xmlns:xsi="http://www.w3.org/2001/XMLSchema-instance" xmlns:wptx1="http://www.garmin.com/xmlschemas/WaypointExtension/v1" xmlns:gpxtrx="http://www.garmin.com/xmlschemas/GpxExtensions/v3" xmlns:gpxtpx="http://www.garmin.com/xmlschemas/TrackPointExtension/v1" xmlns:gpxx="http://www.garmin.com/xmlschemas/GpxExtensions/v3" xmlns:trp="http://www.garmin.com/xmlschemas/TripExtensions/v1" xmlns:adv="http://www.garmin.com/xmlschemas/AdventuresExtensions/v1" xmlns:prs="http://www.garmin.com/xmlschemas/PressureExtension/v1" xmlns:tmd="http://www.garmin.com/xmlschemas/TripMetaDataExtensions/v1" xmlns:vptm="http://www.garmin.com/xmlschemas/ViaPointTransportationModeExtensions/v1" xmlns:ctx="http://www.garmin.com/xmlschemas/CreationTimeExtension/v1" xmlns:gpxacc="http://www.garmin.com/xmlschemas/AccelerationExtension/v1" xmlns:gpxpx="http://www.garmin.com/xmlschemas/PowerExtension/v1" xmlns:vidx1="http://www.garmin.com/xmlschemas/VideoExtension/v1">

  <metadata>
    <link href="http://www.garmin.com">
      <text>Garmin International</text>
    </link>
    <time>2021-08-08T19:58:00Z</time>
    <bounds maxlat="51.424298789352179" maxlon="4.413042515516281" minlat="51.34961100295186" minlon="4.347237031906843" />
  </metadata>

  <trk>
    <name>weide de wolf 14 km</name>
    <extensions>
      <gpxx:TrackExtension>
        <gpxx:DisplayColor>Red</gpxx:DisplayColor>
      </gpxx:TrackExtension>
    </extensions>
    <trkseg>
      <trkpt lat="51.350375935435295" lon="4.347840696573257">
        <ele>11.26</ele>
        <time>2021-08-08T08:07:03Z</time>
      </trkpt>
      <trkpt lat="51.350389514118433" lon="4.347866680473089">
        <ele>11.19</ele>
        <time>2021-08-08T08:07:21Z</time>
      </trkpt>
      <trkpt lat="51.350404433906078" lon="4.347900459542871">
        <ele>11.1</ele>
        <time>2021-08-08T08:07:41Z</time>
      </trkpt>
      <trkpt lat="51.350397225469351" lon="4.347906159237027">
        <ele>11.01</ele>
        <time>2021-08-08T08:08:03Z</time>
      </trkpt>
      <trkpt lat="51.350399572402239" lon="4.347907165065408">
        <ele>14.66</ele>
        <time>2021-08-08T08:08:23Z</time>
      </trkpt>
      <trkpt lat="51.350398482754827" lon="4.347906494513154">
        <ele>14.66</ele>
        <time>2021-08-08T08:08:24Z</time>
      </trkpt>
      <trkpt lat="51.350397393107414" lon="4.347911272197962">
        <ele>12.25</ele>
        <time>2021-08-08T08:08:26Z</time>
      </trkpt>
      <trkpt lat="51.35038792155683" lon="4.347890485078096">
        <ele>12.15</ele>
        <time>2021-08-08T08:08:52Z</time>
      </trkpt>
      <trkpt lat="51.350382640957832" lon="4.347866429015994">
        <ele>11.23</ele>
        <time>2021-08-08T08:09:20Z</time>
      </trkpt>
      <trkpt lat="51.350378533825278" lon="4.347874894738197">
        <ele>11.109999999999999</ele>
        <time>2021-08-08T08:09:45Z</time>
      </trkpt>
      <trkpt lat="51.350373337045312" lon="4.347935579717159">
        <ele>11</ele>
        <time>2021-08-08T08:10:11Z</time>
      </trkpt>
      <trkpt lat="51.350405272096395" lon="4.347925018519163">
        <ele>10.91</ele>
        <time>2021-08-08T08:10:28Z</time>
      </trkpt>
      <trkpt lat="51.350435866042972" lon="4.347933987155557">
        <ele>10.82</ele>
        <time>2021-08-08T08:10:49Z</time>
      </trkpt>
      <trkpt lat="51.350443242117763" lon="4.347917474806309">
        <ele>10.74</ele>
        <time>2021-08-08T08:11:08Z</time>
      </trkpt>
      <trkpt lat="51.350394040346146" lon="4.347911020740867">
        <ele>10.640000000000001</ele>
        <time>2021-08-08T08:11:29Z</time>
      </trkpt>
      <trkpt lat="51.350421868264675" lon="4.347906494513154">
        <ele>10.550000000000001</ele>
        <time>2021-08-08T08:11:41Z</time>
      </trkpt>
      <trkpt lat="51.350422454997897" lon="4.347941866144538">
        <ele>10.359999999999999</ele>
        <time>2021-08-08T08:12:05Z</time>
      </trkpt>
      <trkpt lat="51.35046117939055" lon="4.347857628017664">
        <ele>10.23</ele>
        <time>2021-08-08T08:12:23Z</time>
      </trkpt>
      <trkpt lat="51.350485989823937" lon="4.347828458994627">
        <ele>10.039999999999999</ele>
        <time>2021-08-08T08:12:48Z</time>
      </trkpt>
      <trkpt lat="51.350476015359163" lon="4.347792249172926">
        <ele>9.91</ele>
        <time>2021-08-08T08:13:09Z</time>
      </trkpt>
      <trkpt lat="51.350478194653988" lon="4.347802139818668">
        <ele>9.75</ele>
        <time>2021-08-08T08:13:35Z</time>
      </trkpt>
      <trkpt lat="51.350495964288712" lon="4.347793590277433">
        <ele>9.550000000000001</ele>
        <time>2021-08-08T08:14:11Z</time>
      </trkpt>
      <trkpt lat="51.350479116663337" lon="4.347790572792292">
        <ele>9.4</ele>
        <time>2021-08-08T08:14:40Z</time>
      </trkpt>
      <trkpt lat="51.350469728931785" lon="4.347772551700473">
        <ele>9.27</ele>
        <time>2021-08-08T08:15:05Z</time>
      </trkpt>
      <trkpt lat="51.350473584607244" lon="4.347764672711492">
        <ele>9.109999999999999</ele>
        <time>2021-08-08T08:15:38Z</time>
      </trkpt>
      <trkpt lat="51.350474255159497" lon="4.347768193110824">
        <ele>8.99</ele>
        <time>2021-08-08T08:16:01Z</time>
      </trkpt>
      <trkpt lat="51.350482637062669" lon="4.347759895026684">
        <ele>8.84</ele>
        <time>2021-08-08T08:16:28Z</time>
      </trkpt>
      <trkpt lat="51.350490432232618" lon="4.347761403769255">
        <ele>8.68</ele>
        <time>2021-08-08T08:16:55Z</time>
      </trkpt>
      <trkpt lat="51.350505603477359" lon="4.347761068493128">
        <ele>8.560000000000001</ele>
        <time>2021-08-08T08:17:20Z</time>
      </trkpt>
      <trkpt lat="51.35046754963696" lon="4.34769962914288">
        <ele>8.48</ele>
        <time>2021-08-08T08:17:36Z</time>
      </trkpt>
      <trkpt lat="51.350449193269014" lon="4.347654702141881">
        <ele>8.380000000000001</ele>
        <time>2021-08-08T08:18:01Z</time>
      </trkpt>
      <trkpt lat="51.35042111389339" lon="4.347604075446725">
        <ele>8.32</ele>
        <time>2021-08-08T08:18:20Z</time>
      </trkpt>
      <trkpt lat="51.350418766960502" lon="4.347589910030365">
        <ele>8.310000000000001</ele>
        <time>2021-08-08T08:18:21Z</time>
      </trkpt>
      <trkpt lat="51.350378952920437" lon="4.347459403797984">
        <ele>8.27</ele>
        <time>2021-08-08T08:18:29Z</time>
      </trkpt>
      <trkpt lat="51.350367972627282" lon="4.347438029944897">
        <ele>8.24</ele>
        <time>2021-08-08T08:18:43Z</time>
      </trkpt>
      <trkpt lat="51.350347101688385" lon="4.347463343292475">
        <ele>8.19</ele>
        <time>2021-08-08T08:19:02Z</time>
      </trkpt>
      <trkpt lat="51.350362356752157" lon="4.347489075735211">
        <ele>8.140000000000001</ele>
        <time>2021-08-08T08:19:24Z</time>
      </trkpt>
      <trkpt lat="51.350362943485379" lon="4.347508773207665">
        <ele>8.1</ele>
        <time>2021-08-08T08:19:47Z</time>
      </trkpt>
      <trkpt lat="51.350380126386881" lon="4.347496787086129">
        <ele>8.050000000000001</ele>
        <time>2021-08-08T08:20:10Z</time>
      </trkpt>
      <trkpt lat="51.350369397550821" lon="4.347492260858417">
        <ele>7.98</ele>
        <time>2021-08-08T08:20:40Z</time>
      </trkpt>
      <trkpt lat="51.350373337045312" lon="4.347501900047064">
        <ele>7.89</ele>
        <time>2021-08-08T08:21:09Z</time>
      </trkpt>
      <trkpt lat="51.35035808198154" lon="4.347493769600987">
        <ele>7.81</ele>
        <time>2021-08-08T08:21:38Z</time>
      </trkpt>
      <trkpt lat="51.350374929606915" lon="4.347552191466093">
        <ele>7.75</ele>
        <time>2021-08-08T08:21:54Z</time>
      </trkpt>
      <trkpt lat="51.350471321493387" lon="4.347582366317511">
        <ele>7.73</ele>
        <time>2021-08-08T08:22:01Z</time>
      </trkpt>
      <trkpt lat="51.350528066977859" lon="4.347522854804993">
        <ele>7.72</ele>
        <time>2021-08-08T08:22:06Z</time>
      </trkpt>
      <trkpt lat="51.35049244388938" lon="4.347298555076122">
        <ele>7.64</ele>
        <time>2021-08-08T08:22:23Z</time>
      </trkpt>
      <trkpt lat="51.350448438897729" lon="4.347237199544907">
        <ele>7.61</ele>
        <time>2021-08-08T08:22:29Z</time>
      </trkpt>
      <trkpt lat="51.350271999835968" lon="4.347237031906843">
        <ele>7.55</ele>
        <time>2021-08-08T08:22:41Z</time>
      </trkpt>
      <trkpt lat="51.350073851644993" lon="4.347274834290147">
        <ele>7.41</ele>
        <time>2021-08-08T08:22:55Z</time>
      </trkpt>
      <trkpt lat="51.350033283233643" lon="4.347293525934219">
        <ele>7.39</ele>
        <time>2021-08-08T08:22:58Z</time>
      </trkpt>
      <trkpt lat="51.349962372332811" lon="4.347342560067773">
        <ele>7.4</ele>
        <time>2021-08-08T08:23:03Z</time>
      </trkpt>
      <trkpt lat="51.349770091474056" lon="4.34744062833488">
        <ele>7.35</ele>
        <time>2021-08-08T08:23:18Z</time>
      </trkpt>
      <trkpt lat="51.34971016086638" lon="4.347482118755579">
        <ele>7.29</ele>
        <time>2021-08-08T08:23:22Z</time>
      </trkpt>
      <trkpt lat="51.34961100295186" lon="4.347723014652729">
        <ele>7.15</ele>
        <time>2021-08-08T08:23:39Z</time>
      </trkpt>
      <trkpt lat="51.349669760093093" lon="4.347957707941532">
        <ele>7.03</ele>
        <time>2021-08-08T08:23:54Z</time>
      </trkpt>
      <trkpt lat="51.349675878882408" lon="4.348009340465069">
        <ele>7.02</ele>
        <time>2021-08-08T08:23:56Z</time>
      </trkpt>
      <trkpt lat="51.349771935492754" lon="4.348364481702447">
        <ele>6.88</ele>
        <time>2021-08-08T08:24:12Z</time>
      </trkpt>
      <trkpt lat="51.349818622693419" lon="4.348509823903441">
        <ele>6.81</ele>
        <time>2021-08-08T08:24:19Z</time>
      </trkpt>
      <trkpt lat="51.349949212744832" lon="4.348727753385902">
        <ele>6.6</ele>
        <time>2021-08-08T08:24:35Z</time>
      </trkpt>
      <trkpt lat="51.350045604631305" lon="4.349014163017273">
        <ele>6.44</ele>
        <time>2021-08-08T08:24:53Z</time>
      </trkpt>
      <trkpt lat="51.350146690383554" lon="4.34925296343863">
        <ele>6.32</ele>
        <time>2021-08-08T08:25:11Z</time>
      </trkpt>
      <trkpt lat="51.350192371755838" lon="4.3493408896029">
        <ele>6.26</ele>
        <time>2021-08-08T08:25:17Z</time>
      </trkpt>
      <trkpt lat="51.350258588790894" lon="4.349561249837279">
        <ele>6.05</ele>
        <time>2021-08-08T08:25:31Z</time>
      </trkpt>
      <trkpt lat="51.350282980129123" lon="4.349645068868995">
        <ele>6.02</ele>
        <time>2021-08-08T08:25:35Z</time>
      </trkpt>
      <trkpt lat="51.350344503298402" lon="4.349872134625912">
        <ele>5.77</ele>
        <time>2021-08-08T08:25:49Z</time>
      </trkpt>
      <trkpt lat="51.350451288744807" lon="4.350187629461289">
        <ele>5.47</ele>
        <time>2021-08-08T08:26:07Z</time>
      </trkpt>
      <trkpt lat="51.35058481246233" lon="4.350576801225543">
        <ele>5.15</ele>
        <time>2021-08-08T08:26:26Z</time>
      </trkpt>
      <trkpt lat="51.350645748898387" lon="4.350918866693974">
        <ele>4.86</ele>
        <time>2021-08-08T08:26:42Z</time>
      </trkpt>
      <trkpt lat="51.350763011723757" lon="4.35112732462585">
        <ele>4.63</ele>
        <time>2021-08-08T08:26:55Z</time>
      </trkpt>
      <trkpt lat="51.350780194625258" lon="4.35116009786725">
        <ele>4.56</ele>
        <time>2021-08-08T08:26:57Z</time>
      </trkpt>
      <trkpt lat="51.350838951766491" lon="4.35129102319479">
        <ele>4.37</ele>
        <time>2021-08-08T08:27:10Z</time>
      </trkpt>
      <trkpt lat="51.350872060284019" lon="4.351540468633175">
        <ele>3.97</ele>
        <time>2021-08-08T08:27:29Z</time>
      </trkpt>
      <trkpt lat="51.350872814655304" lon="4.351857891306281">
        <ele>3.55</ele>
        <time>2021-08-08T08:27:51Z</time>
      </trkpt>
      <trkpt lat="51.350867450237274" lon="4.352359799668193">
        <ele>3.08</ele>
        <time>2021-08-08T08:28:11Z</time>
      </trkpt>
      <trkpt lat="51.350839789956808" lon="4.35281896032393">
        <ele>2.66</ele>
        <time>2021-08-08T08:28:28Z</time>
      </trkpt>
      <trkpt lat="51.350818583741784" lon="4.353258842602372">
        <ele>2.17</ele>
        <time>2021-08-08T08:28:47Z</time>
      </trkpt>
      <trkpt lat="51.350838951766491" lon="4.353557825088501">
        <ele>1.65</ele>
        <time>2021-08-08T08:29:06Z</time>
      </trkpt>
      <trkpt lat="51.350808693096042" lon="4.353995192795992">
        <ele>1.05</ele>
        <time>2021-08-08T08:29:27Z</time>
      </trkpt>
      <trkpt lat="51.350805759429932" lon="4.354058643803001">
        <ele>0.85</ele>
        <time>2021-08-08T08:29:34Z</time>
      </trkpt>
      <trkpt lat="51.350832497701049" lon="4.354398865252733">
        <ele>0.16</ele>
        <time>2021-08-08T08:29:57Z</time>
      </trkpt>
      <trkpt lat="51.350829899311066" lon="4.354904210194945">
        <ele>-0.48</ele>
        <time>2021-08-08T08:30:19Z</time>
      </trkpt>
      <trkpt lat="51.350792599841952" lon="4.355131862685084">
        <ele>-0.72</ele>
        <time>2021-08-08T08:30:28Z</time>
      </trkpt>
      <trkpt lat="51.35075437836349" lon="4.35544584877789">
        <ele>-1.23</ele>
        <time>2021-08-08T08:30:46Z</time>
      </trkpt>
      <trkpt lat="51.35073778219521" lon="4.35574147850275">
        <ele>-1.53</ele>
        <time>2021-08-08T08:30:57Z</time>
      </trkpt>
      <trkpt lat="51.350710121914744" lon="4.356137858703733">
        <ele>-1.91</ele>
        <time>2021-08-08T08:31:14Z</time>
      </trkpt>
      <trkpt lat="51.350730489939451" lon="4.356563072651625">
        <ele>-2.23</ele>
        <time>2021-08-08T08:31:34Z</time>
      </trkpt>
      <trkpt lat="51.350861079990864" lon="4.356890972703695">
        <ele>-2.52</ele>
        <time>2021-08-08T08:31:56Z</time>
      </trkpt>
      <trkpt lat="51.350989742204547" lon="4.357242006808519">
        <ele>-2.85</ele>
        <time>2021-08-08T08:32:17Z</time>
      </trkpt>
      <trkpt lat="51.351150004193187" lon="4.357565296813846">
        <ele>-3.17</ele>
        <time>2021-08-08T08:32:37Z</time>
      </trkpt>
      <trkpt lat="51.351303644478321" lon="4.357825806364417">
        <ele>-3.46</ele>
        <time>2021-08-08T08:32:54Z</time>
      </trkpt>
      <trkpt lat="51.351401545107365" lon="4.357997551560402">
        <ele>-1.33</ele>
        <time>2021-08-08T08:33:04Z</time>
      </trkpt>
      <trkpt lat="51.351448483765125" lon="4.35814649797976">
        <ele>-1.43</ele>
        <time>2021-08-08T08:33:11Z</time>
      </trkpt>
      <trkpt lat="51.35157915763557" lon="4.358450761064887">
        <ele>-1.65</ele>
        <time>2021-08-08T08:33:27Z</time>
      </trkpt>
      <trkpt lat="51.35170673020184" lon="4.358709761872888">
        <ele>-1.92</ele>
        <time>2021-08-08T08:33:45Z</time>
      </trkpt>
      <trkpt lat="51.351833213120699" lon="4.359018802642822">
        <ele>-2.23</ele>
        <time>2021-08-08T08:34:04Z</time>
      </trkpt>
      <trkpt lat="51.352114090695977" lon="4.359273444861174">
        <ele>-2.54</ele>
        <time>2021-08-08T08:34:22Z</time>
      </trkpt>
      <trkpt lat="51.352318609133363" lon="4.359559854492545">
        <ele>-2.88</ele>
        <time>2021-08-08T08:34:40Z</time>
      </trkpt>
      <trkpt lat="51.352475266903639" lon="4.359874846413732">
        <ele>-3.2</ele>
        <time>2021-08-08T08:34:58Z</time>
      </trkpt>
      <trkpt lat="51.352516254410148" lon="4.359948020428419">
        <ele>-3.26</ele>
        <time>2021-08-08T08:35:02Z</time>
      </trkpt>
      <trkpt lat="51.35260870680213" lon="4.360210038721561">
        <ele>-3.54</ele>
        <time>2021-08-08T08:35:16Z</time>
      </trkpt>
      <trkpt lat="51.352734519168735" lon="4.360605077818036">
        <ele>-3.09</ele>
        <time>2021-08-08T08:35:36Z</time>
      </trkpt>
      <trkpt lat="51.352856308221817" lon="4.360858462750912">
        <ele>-3.35</ele>
        <time>2021-08-08T08:35:53Z</time>
      </trkpt>
      <trkpt lat="51.352868378162384" lon="4.360893331468105">
        <ele>-3.38</ele>
        <time>2021-08-08T08:35:55Z</time>
      </trkpt>
      <trkpt lat="51.352922692894936" lon="4.361048983410001">
        <ele>-6.43</ele>
        <time>2021-08-08T08:36:05Z</time>
      </trkpt>
      <trkpt lat="51.352923698723316" lon="4.361060466617346">
        <ele>-6.45</ele>
        <time>2021-08-08T08:36:06Z</time>
      </trkpt>
      <trkpt lat="51.353035178035498" lon="4.361363053321838">
        <ele>-6.68</ele>
        <time>2021-08-08T08:36:21Z</time>
      </trkpt>
      <trkpt lat="51.353151183575392" lon="4.361616186797619">
        <ele>-6.91</ele>
        <time>2021-08-08T08:36:37Z</time>
      </trkpt>
      <trkpt lat="51.353268278762698" lon="4.361884826794267">
        <ele>-7.23</ele>
        <time>2021-08-08T08:36:56Z</time>
      </trkpt>
      <trkpt lat="51.353354696184397" lon="4.362078532576561">
        <ele>-7.53</ele>
        <time>2021-08-08T08:37:11Z</time>
      </trkpt>
      <trkpt lat="51.353579582646489" lon="4.362484887242317">
        <ele>-7.96</ele>
        <time>2021-08-08T08:37:32Z</time>
      </trkpt>
      <trkpt lat="51.353730792179704" lon="4.362761238589883">
        <ele>-8.24</ele>
        <time>2021-08-08T08:37:47Z</time>
      </trkpt>
      <trkpt lat="51.353816287592053" lon="4.362733578309417">
        <ele>-6.04</ele>
        <time>2021-08-08T08:37:56Z</time>
      </trkpt>
      <trkpt lat="51.35391435585916" lon="4.362599216401577">
        <ele>-6.34</ele>
        <time>2021-08-08T08:38:13Z</time>
      </trkpt>
      <trkpt lat="51.354055255651474" lon="4.362314650788903">
        <ele>-6.69</ele>
        <time>2021-08-08T08:38:32Z</time>
      </trkpt>
      <trkpt lat="51.354236723855138" lon="4.362077694386244">
        <ele>-7.05</ele>
        <time>2021-08-08T08:38:51Z</time>
      </trkpt>
      <trkpt lat="51.354299001395702" lon="4.361927658319473">
        <ele>-7.2</ele>
        <time>2021-08-08T08:38:59Z</time>
      </trkpt>
      <trkpt lat="51.354535287246108" lon="4.361647954210639">
        <ele>-7.61</ele>
        <time>2021-08-08T08:39:21Z</time>
      </trkpt>
      <trkpt lat="51.354649784043431" lon="4.361318042501807">
        <ele>-8.01</ele>
        <time>2021-08-08T08:39:42Z</time>
      </trkpt>
      <trkpt lat="51.354838795959949" lon="4.361052252352238">
        <ele>-8.449999999999999</ele>
        <time>2021-08-08T08:40:03Z</time>
      </trkpt>
      <trkpt lat="51.354942061007023" lon="4.360824013128877">
        <ele>-8.82</ele>
        <time>2021-08-08T08:40:20Z</time>
      </trkpt>
      <trkpt lat="51.35510265827179" lon="4.360506674274802">
        <ele>-9.23</ele>
        <time>2021-08-08T08:40:41Z</time>
      </trkpt>
      <trkpt lat="51.355136018246412" lon="4.360453113913536">
        <ele>-7.73</ele>
        <time>2021-08-08T08:40:46Z</time>
      </trkpt>
      <trkpt lat="51.355144567787647" lon="4.360431069508195">
        <ele>-7.8</ele>
        <time>2021-08-08T08:40:49Z</time>
      </trkpt>
      <trkpt lat="51.355158733204007" lon="4.36037415638566">
        <ele>-7.86</ele>
        <time>2021-08-08T08:40:53Z</time>
      </trkpt>
      <trkpt lat="51.355316648259759" lon="4.360238621011376">
        <ele>-8.16</ele>
        <time>2021-08-08T08:41:12Z</time>
      </trkpt>
      <trkpt lat="51.355400048196316" lon="4.360120855271816">
        <ele>-8.25</ele>
        <time>2021-08-08T08:41:20Z</time>
      </trkpt>
      <trkpt lat="51.355693666264415" lon="4.36023585498333">
        <ele>-8.380000000000001</ele>
        <time>2021-08-08T08:41:38Z</time>
      </trkpt>
      <trkpt lat="51.355920564383268" lon="4.360311795026064">
        <ele>-8.49</ele>
        <time>2021-08-08T08:41:55Z</time>
      </trkpt>
      <trkpt lat="51.356242764741182" lon="4.360404750332236">
        <ele>-8.560000000000001</ele>
        <time>2021-08-08T08:42:12Z</time>
      </trkpt>
      <trkpt lat="51.356334211304784" lon="4.360463675111532">
        <ele>-8.59</ele>
        <time>2021-08-08T08:42:20Z</time>
      </trkpt>
      <trkpt lat="51.356511488556862" lon="4.360683783888817">
        <ele>-8.640000000000001</ele>
        <time>2021-08-08T08:42:37Z</time>
      </trkpt>
      <trkpt lat="51.35666529648006" lon="4.36081487685442">
        <ele>-8.65</ele>
        <time>2021-08-08T08:42:56Z</time>
      </trkpt>
      <trkpt lat="51.356851207092404" lon="4.360832730308175">
        <ele>-8.710000000000001</ele>
        <time>2021-08-08T08:43:18Z</time>
      </trkpt>
      <trkpt lat="51.356852212920785" lon="4.360834741964936">
        <ele>-8.710000000000001</ele>
        <time>2021-08-08T08:43:19Z</time>
      </trkpt>
      <trkpt lat="51.357131749391556" lon="4.360897522419691">
        <ele>-8.73</ele>
        <time>2021-08-08T08:43:41Z</time>
      </trkpt>
      <trkpt lat="51.357370130717754" lon="4.360935827717185">
        <ele>-8.75</ele>
        <time>2021-08-08T08:43:57Z</time>
      </trkpt>
      <trkpt lat="51.357587892562151" lon="4.361066753044725">
        <ele>-7.91</ele>
        <time>2021-08-08T08:44:15Z</time>
      </trkpt>
      <trkpt lat="51.357779251411557" lon="4.361276552081108">
        <ele>-7.07</ele>
        <time>2021-08-08T08:44:37Z</time>
      </trkpt>
      <trkpt lat="51.35796264745295" lon="4.361337153241038">
        <ele>-9.44</ele>
        <time>2021-08-08T08:44:56Z</time>
      </trkpt>
      <trkpt lat="51.358005562797189" lon="4.361302703619003">
        <ele>-9.449999999999999</ele>
        <time>2021-08-08T08:45:02Z</time>
      </trkpt>
      <trkpt lat="51.358227264136076" lon="4.361353749409318">
        <ele>-9.470000000000001</ele>
        <time>2021-08-08T08:45:23Z</time>
      </trkpt>
      <trkpt lat="51.358275376260281" lon="4.361325837671757">
        <ele>-9.48</ele>
        <time>2021-08-08T08:45:30Z</time>
      </trkpt>
      <trkpt lat="51.358290296047926" lon="4.361312342807651">
        <ele>-9.48</ele>
        <time>2021-08-08T08:45:32Z</time>
      </trkpt>
      <trkpt lat="51.358309490606189" lon="4.361297003924847">
        <ele>-8.26</ele>
        <time>2021-08-08T08:45:40Z</time>
      </trkpt>
      <trkpt lat="51.35857586748898" lon="4.361268505454063">
        <ele>-8.27</ele>
        <time>2021-08-08T08:45:57Z</time>
      </trkpt>
      <trkpt lat="51.358778709545732" lon="4.360982682555914">
        <ele>-8.300000000000001</ele>
        <time>2021-08-08T08:46:13Z</time>
      </trkpt>
      <trkpt lat="51.358885914087296" lon="4.360740780830383">
        <ele>-8.380000000000001</ele>
        <time>2021-08-08T08:46:30Z</time>
      </trkpt>
      <trkpt lat="51.358937881886959" lon="4.360361667349935">
        <ele>-8.470000000000001</ele>
        <time>2021-08-08T08:46:47Z</time>
      </trkpt>
      <trkpt lat="51.358912233263254" lon="4.360039802268148">
        <ele>-8.57</ele>
        <time>2021-08-08T08:47:02Z</time>
      </trkpt>
      <trkpt lat="51.35893452912569" lon="4.359635207802057">
        <ele>-8.699999999999999</ele>
        <time>2021-08-08T08:47:21Z</time>
      </trkpt>
      <trkpt lat="51.358938552439213" lon="4.35963193885982">
        <ele>-8.720000000000001</ele>
        <time>2021-08-08T08:47:23Z</time>
      </trkpt>
      <trkpt lat="51.358934696763754" lon="4.359612409025431">
        <ele>-8.75</ele>
        <time>2021-08-08T08:47:26Z</time>
      </trkpt>
      <trkpt lat="51.359076602384448" lon="4.359585838392377">
        <ele>-8.880000000000001</ele>
        <time>2021-08-08T08:47:46Z</time>
      </trkpt>
      <trkpt lat="51.359101077541709" lon="4.359621210023761">
        <ele>-9.01</ele>
        <time>2021-08-08T08:48:09Z</time>
      </trkpt>
      <trkpt lat="51.359163774177432" lon="4.359718943014741">
        <ele>-9.109999999999999</ele>
        <time>2021-08-08T08:48:31Z</time>
      </trkpt>
      <trkpt lat="51.359370555728674" lon="4.359896974638104">
        <ele>-9.199999999999999</ele>
        <time>2021-08-08T08:48:50Z</time>
      </trkpt>
      <trkpt lat="51.359574319794774" lon="4.360045082867146">
        <ele>-9.26</ele>
        <time>2021-08-08T08:49:11Z</time>
      </trkpt>
      <trkpt lat="51.359687559306622" lon="4.360028151422739">
        <ele>-9.310000000000001</ele>
        <time>2021-08-08T08:49:27Z</time>
      </trkpt>
      <trkpt lat="51.359889646992087" lon="4.360128482803702">
        <ele>-9.4</ele>
        <time>2021-08-08T08:49:48Z</time>
      </trkpt>
      <trkpt lat="51.360114281997085" lon="4.360163183882833">
        <ele>-9.43</ele>
        <time>2021-08-08T08:50:03Z</time>
      </trkpt>
      <trkpt lat="51.360318716615438" lon="4.360242057591677">
        <ele>-9.470000000000001</ele>
        <time>2021-08-08T08:50:20Z</time>
      </trkpt>
      <trkpt lat="51.360525079071522" lon="4.360387567430735">
        <ele>-9.449999999999999</ele>
        <time>2021-08-08T08:50:40Z</time>
      </trkpt>
      <trkpt lat="51.360653908923268" lon="4.360484546050429">
        <ele>-9.41</ele>
        <time>2021-08-08T08:50:59Z</time>
      </trkpt>
      <trkpt lat="51.36066329665482" lon="4.360482366755605">
        <ele>-9.4</ele>
        <time>2021-08-08T08:51:02Z</time>
      </trkpt>
      <trkpt lat="51.36087242513895" lon="4.360633660107851">
        <ele>-9.380000000000001</ele>
        <time>2021-08-08T08:51:21Z</time>
      </trkpt>
      <trkpt lat="51.360935121774673" lon="4.36073767952621">
        <ele>-9.4</ele>
        <time>2021-08-08T08:51:30Z</time>
      </trkpt>
      <trkpt lat="51.361109130084515" lon="4.360751174390316">
        <ele>-9.310000000000001</ele>
        <time>2021-08-08T08:51:55Z</time>
      </trkpt>
      <trkpt lat="51.361185237765312" lon="4.360900288447738">
        <ele>-9.289999999999999</ele>
        <time>2021-08-08T08:52:14Z</time>
      </trkpt>
      <trkpt lat="51.361196888610721" lon="4.360921243205667">
        <ele>-9.300000000000001</ele>
        <time>2021-08-08T08:52:16Z</time>
      </trkpt>
      <trkpt lat="51.3614103756845" lon="4.361217711120844">
        <ele>-8.380000000000001</ele>
        <time>2021-08-08T08:52:54Z</time>
      </trkpt>
      <trkpt lat="51.361595531925559" lon="4.361290382221341">
        <ele>-8.4</ele>
        <time>2021-08-08T08:53:16Z</time>
      </trkpt>
      <trkpt lat="51.361754117533565" lon="4.361289124935865">
        <ele>-8.4</ele>
        <time>2021-08-08T08:53:38Z</time>
      </trkpt>
      <trkpt lat="51.361995516344905" lon="4.361322149634361">
        <ele>-8.460000000000001</ele>
        <time>2021-08-08T08:53:56Z</time>
      </trkpt>
      <trkpt lat="51.362248314544559" lon="4.361418457701802">
        <ele>-8.49</ele>
        <time>2021-08-08T08:54:15Z</time>
      </trkpt>
      <trkpt lat="51.362280333414674" lon="4.361473359167576">
        <ele>-10.81</ele>
        <time>2021-08-08T08:54:20Z</time>
      </trkpt>
      <trkpt lat="51.362439673393965" lon="4.361556423828006">
        <ele>-10.800000000000001</ele>
        <time>2021-08-08T08:54:35Z</time>
      </trkpt>
      <trkpt lat="51.362507650628686" lon="4.361438825726509">
        <ele>-10.81</ele>
        <time>2021-08-08T08:54:53Z</time>
      </trkpt>
      <trkpt lat="51.362692806869745" lon="4.361244114115834">
        <ele>-10.949999999999999</ele>
        <time>2021-08-08T08:55:15Z</time>
      </trkpt>
      <trkpt lat="51.362765058875084" lon="4.361231960356236">
        <ele>-10.970000000000001</ele>
        <time>2021-08-08T08:55:22Z</time>
      </trkpt>
      <trkpt lat="51.363069741055369" lon="4.361237157136202">
        <ele>-11.130000000000001</ele>
        <time>2021-08-08T08:55:46Z</time>
      </trkpt>
      <trkpt lat="51.363257663324475" lon="4.361551562324166">
        <ele>-11.16</ele>
        <time>2021-08-08T08:56:09Z</time>
      </trkpt>
      <trkpt lat="51.363349948078394" lon="4.361868649721146">
        <ele>-11.27</ele>
        <time>2021-08-08T08:56:29Z</time>
      </trkpt>
      <trkpt lat="51.363444915041327" lon="4.362148772925139">
        <ele>-11.449999999999999</ele>
        <time>2021-08-08T08:56:53Z</time>
      </trkpt>
      <trkpt lat="51.363455727696419" lon="4.362231837585568">
        <ele>-11.529999999999999</ele>
        <time>2021-08-08T08:56:59Z</time>
      </trkpt>
      <trkpt lat="51.363462768495083" lon="4.362368294969201">
        <ele>-10.94</ele>
        <time>2021-08-08T08:57:06Z</time>
      </trkpt>
      <trkpt lat="51.363506019115448" lon="4.362560659646988">
        <ele>-11.02</ele>
        <time>2021-08-08T08:57:14Z</time>
      </trkpt>
      <trkpt lat="51.36363610625267" lon="4.362860228866339">
        <ele>-11.220000000000001</ele>
        <time>2021-08-08T08:57:32Z</time>
      </trkpt>
      <trkpt lat="51.363691929727793" lon="4.363508569076657">
        <ele>-11.9</ele>
        <time>2021-08-08T08:58:20Z</time>
      </trkpt>
      <trkpt lat="51.363749681040645" lon="4.363662293180823">
        <ele>-12.01</ele>
        <time>2021-08-08T08:58:28Z</time>
      </trkpt>
      <trkpt lat="51.363815311342478" lon="4.363781483843923">
        <ele>-12.06</ele>
        <time>2021-08-08T08:58:33Z</time>
      </trkpt>
      <trkpt lat="51.36400206014514" lon="4.364126985892654">
        <ele>-12.25</ele>
        <time>2021-08-08T08:58:45Z</time>
      </trkpt>
      <trkpt lat="51.364195263013244" lon="4.364745067432523">
        <ele>-12.51</ele>
        <time>2021-08-08T08:58:59Z</time>
      </trkpt>
      <trkpt lat="51.364556606858969" lon="4.366607945412397">
        <ele>-12.449999999999999</ele>
        <time>2021-08-08T08:59:35Z</time>
      </trkpt>
      <trkpt lat="51.364601450040936" lon="4.366974150761962">
        <ele>-12.67</ele>
        <time>2021-08-08T08:59:42Z</time>
      </trkpt>
      <trkpt lat="51.364607904106379" lon="4.367033494636416">
        <ele>-12.710000000000001</ele>
        <time>2021-08-08T08:59:43Z</time>
      </trkpt>
      <trkpt lat="51.364694489166141" lon="4.367426102980971">
        <ele>-13</ele>
        <time>2021-08-08T08:59:54Z</time>
      </trkpt>
      <trkpt lat="51.364822145551443" lon="4.367987187579274">
        <ele>-13.539999999999999</ele>
        <time>2021-08-08T09:00:11Z</time>
      </trkpt>
      <trkpt lat="51.364870090037584" lon="4.368505189195275">
        <ele>-14.029999999999999</ele>
        <time>2021-08-08T09:00:30Z</time>
      </trkpt>
      <trkpt lat="51.3649021089077" lon="4.368922356516123">
        <ele>-14.529999999999999</ele>
        <time>2021-08-08T09:00:50Z</time>
      </trkpt>
      <trkpt lat="51.365020712837577" lon="4.369476903229952">
        <ele>-15.06</ele>
        <time>2021-08-08T09:01:11Z</time>
      </trkpt>
      <trkpt lat="51.365150213241577" lon="4.369543790817261">
        <ele>-15.390000000000001</ele>
        <time>2021-08-08T09:01:28Z</time>
      </trkpt>
      <trkpt lat="51.365325981751084" lon="4.369322676211596">
        <ele>-15.84</ele>
        <time>2021-08-08T09:01:47Z</time>
      </trkpt>
      <trkpt lat="51.365705598145723" lon="4.369161492213607">
        <ele>-16.280000000000001</ele>
        <time>2021-08-08T09:02:17Z</time>
      </trkpt>
      <trkpt lat="51.365937776863575" lon="4.369059232994914">
        <ele>-16.449999999999999</ele>
        <time>2021-08-08T09:02:35Z</time>
      </trkpt>
      <trkpt lat="51.366124609485269" lon="4.368957979604602">
        <ele>-16.690000000000001</ele>
        <time>2021-08-08T09:02:54Z</time>
      </trkpt>
      <trkpt lat="51.366242291405797" lon="4.36891196295619">
        <ele>-16.77</ele>
        <time>2021-08-08T09:03:04Z</time>
      </trkpt>
      <trkpt lat="51.366282775998116" lon="4.368896707892418">
        <ele>-16.789999999999999</ele>
        <time>2021-08-08T09:03:07Z</time>
      </trkpt>
      <trkpt lat="51.366476565599442" lon="4.368660673499107">
        <ele>-16.960000000000001</ele>
        <time>2021-08-08T09:03:29Z</time>
      </trkpt>
      <trkpt lat="51.366624003276229" lon="4.36833780258894">
        <ele>-17.16</ele>
        <time>2021-08-08T09:03:47Z</time>
      </trkpt>
      <trkpt lat="51.366908820345998" lon="4.368104282766581">
        <ele>-17.370000000000001</ele>
        <time>2021-08-08T09:04:05Z</time>
      </trkpt>
      <trkpt lat="51.366991633549333" lon="4.368071258068085">
        <ele>-17.449999999999999</ele>
        <time>2021-08-08T09:04:13Z</time>
      </trkpt>
      <trkpt lat="51.367279635742307" lon="4.367883671075106">
        <ele>-17.609999999999999</ele>
        <time>2021-08-08T09:04:34Z</time>
      </trkpt>
      <trkpt lat="51.367525225505233" lon="4.367746962234378">
        <ele>-17.77</ele>
        <time>2021-08-08T09:04:54Z</time>
      </trkpt>
      <trkpt lat="51.367551041767001" lon="4.367735898122191">
        <ele>-17.77</ele>
        <time>2021-08-08T09:04:57Z</time>
      </trkpt>
      <trkpt lat="51.367601836100221" lon="4.367709159851074">
        <ele>-17.789999999999999</ele>
        <time>2021-08-08T09:05:01Z</time>
      </trkpt>
      <trkpt lat="51.367791770026088" lon="4.36757848598063">
        <ele>-17.120000000000001</ele>
        <time>2021-08-08T09:05:18Z</time>
      </trkpt>
      <trkpt lat="51.367974411696196" lon="4.367441525682807">
        <ele>-17.27</ele>
        <time>2021-08-08T09:05:30Z</time>
      </trkpt>
      <trkpt lat="51.368104498833418" lon="4.367345217615366">
        <ele>-17.32</ele>
        <time>2021-08-08T09:05:41Z</time>
      </trkpt>
      <trkpt lat="51.368134086951613" lon="4.36732878908515">
        <ele>-17.34</ele>
        <time>2021-08-08T09:05:43Z</time>
      </trkpt>
      <trkpt lat="51.36825755238533" lon="4.367254776880145">
        <ele>-19.68</ele>
        <time>2021-08-08T09:05:54Z</time>
      </trkpt>
      <trkpt lat="51.368425441905856" lon="4.367155535146594">
        <ele>-19.73</ele>
        <time>2021-08-08T09:06:08Z</time>
      </trkpt>
      <trkpt lat="51.368668517097831" lon="4.36697599478066">
        <ele>-19.809999999999999</ele>
        <time>2021-08-08T09:06:29Z</time>
      </trkpt>
      <trkpt lat="51.368888290598989" lon="4.366845991462469">
        <ele>-19.920000000000002</ele>
        <time>2021-08-08T09:06:47Z</time>
      </trkpt>
      <trkpt lat="51.369091719388962" lon="4.366955459117889">
        <ele>-19.98</ele>
        <time>2021-08-08T09:07:05Z</time>
      </trkpt>
      <trkpt lat="51.369191044941545" lon="4.367163330316544">
        <ele>-20.079999999999998</ele>
        <time>2021-08-08T09:07:24Z</time>
      </trkpt>
      <trkpt lat="51.369358515366912" lon="4.367427527904511">
        <ele>-20.16</ele>
        <time>2021-08-08T09:07:42Z</time>
      </trkpt>
      <trkpt lat="51.369489692151546" lon="4.367430377751589">
        <ele>-20.190000000000001</ele>
        <time>2021-08-08T09:07:48Z</time>
      </trkpt>
      <trkpt lat="51.369575774297118" lon="4.367433227598667">
        <ele>-20.239999999999998</ele>
        <time>2021-08-08T09:07:52Z</time>
      </trkpt>
      <trkpt lat="51.369783896952868" lon="4.367393162101507">
        <ele>-20.300000000000001</ele>
        <time>2021-08-08T09:08:01Z</time>
      </trkpt>
      <trkpt lat="51.369896801188588" lon="4.367404645308852">
        <ele>-20.350000000000001</ele>
        <time>2021-08-08T09:08:06Z</time>
      </trkpt>
      <trkpt lat="51.370323272421956" lon="4.367374386638403">
        <ele>-20.469999999999999</ele>
        <time>2021-08-08T09:08:17Z</time>
      </trkpt>
      <trkpt lat="51.370680173859" lon="4.367318479344249">
        <ele>-20.530000000000001</ele>
        <time>2021-08-08T09:08:27Z</time>
      </trkpt>
      <trkpt lat="51.370711019262671" lon="4.367295764386654">
        <ele>-20.539999999999999</ele>
        <time>2021-08-08T09:08:28Z</time>
      </trkpt>
      <trkpt lat="51.370738511905074" lon="4.367283778265119">
        <ele>-20.539999999999999</ele>
        <time>2021-08-08T09:08:29Z</time>
      </trkpt>
      <trkpt lat="51.37076273560524" lon="4.367281598970294">
        <ele>-20.550000000000001</ele>
        <time>2021-08-08T09:08:30Z</time>
      </trkpt>
      <trkpt lat="51.370794922113419" lon="4.367280257865787">
        <ele>-20.559999999999999</ele>
        <time>2021-08-08T09:08:31Z</time>
      </trkpt>
      <trkpt lat="51.370831886306405" lon="4.367272043600678">
        <ele>-20.559999999999999</ele>
        <time>2021-08-08T09:08:32Z</time>
      </trkpt>
      <trkpt lat="51.370862144976854" lon="4.367261733859778">
        <ele>-20.57</ele>
        <time>2021-08-08T09:08:33Z</time>
      </trkpt>
      <trkpt lat="51.370901959016919" lon="4.367249831557274">
        <ele>-20.57</ele>
        <time>2021-08-08T09:08:34Z</time>
      </trkpt>
      <trkpt lat="51.370940683409572" lon="4.36724916100502">
        <ele>-20.57</ele>
        <time>2021-08-08T09:08:35Z</time>
      </trkpt>
      <trkpt lat="51.370973540470004" lon="4.367249328643084">
        <ele>-20.57</ele>
        <time>2021-08-08T09:08:36Z</time>
      </trkpt>
      <trkpt lat="51.37099483050406" lon="4.367259303107858">
        <ele>-20.579999999999998</ele>
        <time>2021-08-08T09:08:37Z</time>
      </trkpt>
      <trkpt lat="51.371023999527097" lon="4.367270115762949">
        <ele>-20.579999999999998</ele>
        <time>2021-08-08T09:08:38Z</time>
      </trkpt>
      <trkpt lat="51.37105249799788" lon="4.367287969216704">
        <ele>-20.57</ele>
        <time>2021-08-08T09:08:39Z</time>
      </trkpt>
      <trkpt lat="51.371079990640283" lon="4.367308085784316">
        <ele>-20.57</ele>
        <time>2021-08-08T09:08:40Z</time>
      </trkpt>
      <trkpt lat="51.37113212607801" lon="4.367330046370626">
        <ele>-20.59</ele>
        <time>2021-08-08T09:08:42Z</time>
      </trkpt>
      <trkpt lat="51.371146459132433" lon="4.367357036098838">
        <ele>-20.59</ele>
        <time>2021-08-08T09:08:43Z</time>
      </trkpt>
      <trkpt lat="51.371159618720412" lon="4.367384947836399">
        <ele>-20.600000000000001</ele>
        <time>2021-08-08T09:08:44Z</time>
      </trkpt>
      <trkpt lat="51.371233211830258" lon="4.367478406056762">
        <ele>-20.620000000000001</ele>
        <time>2021-08-08T09:08:49Z</time>
      </trkpt>
      <trkpt lat="51.371250059455633" lon="4.367523584514856">
        <ele>-20.620000000000001</ele>
        <time>2021-08-08T09:08:51Z</time>
      </trkpt>
      <trkpt lat="51.371351983398199" lon="4.367863973602653">
        <ele>-20.710000000000001</ele>
        <time>2021-08-08T09:09:07Z</time>
      </trkpt>
      <trkpt lat="51.371398670598865" lon="4.368218192830682">
        <ele>-20.800000000000001</ele>
        <time>2021-08-08T09:09:25Z</time>
      </trkpt>
      <trkpt lat="51.371522136032581" lon="4.36867349781096">
        <ele>-20.879999999999999</ele>
        <time>2021-08-08T09:09:43Z</time>
      </trkpt>
      <trkpt lat="51.371610481292009" lon="4.369062250480056">
        <ele>-20.940000000000001</ele>
        <time>2021-08-08T09:09:59Z</time>
      </trkpt>
      <trkpt lat="51.371677368879318" lon="4.369350671768189">
        <ele>-21</ele>
        <time>2021-08-08T09:10:15Z</time>
      </trkpt>
      <trkpt lat="51.371737634763122" lon="4.369635321199894">
        <ele>-20.280000000000001</ele>
        <time>2021-08-08T09:10:31Z</time>
      </trkpt>
      <trkpt lat="51.371810557320714" lon="4.369988283142448">
        <ele>-20.34</ele>
        <time>2021-08-08T09:10:48Z</time>
      </trkpt>
      <trkpt lat="51.371818268671632" lon="4.370051063597202">
        <ele>-20.370000000000001</ele>
        <time>2021-08-08T09:10:51Z</time>
      </trkpt>
      <trkpt lat="51.371684996411204" lon="4.370306627824903">
        <ele>-20.460000000000001</ele>
        <time>2021-08-08T09:11:08Z</time>
      </trkpt>
      <trkpt lat="51.371586006134748" lon="4.370693704113364">
        <ele>-19.84</ele>
        <time>2021-08-08T09:11:25Z</time>
      </trkpt>
      <trkpt lat="51.371637135744095" lon="4.37109855003655">
        <ele>-19.98</ele>
        <time>2021-08-08T09:11:42Z</time>
      </trkpt>
      <trkpt lat="51.37166035361588" lon="4.3713169824332">
        <ele>-18.989999999999998</ele>
        <time>2021-08-08T09:12:01Z</time>
      </trkpt>
      <trkpt lat="51.371662616729736" lon="4.371499372646213">
        <ele>-19.199999999999999</ele>
        <time>2021-08-08T09:12:23Z</time>
      </trkpt>
      <trkpt lat="51.371656162664294" lon="4.371538851410151">
        <ele>-19.329999999999998</ele>
        <time>2021-08-08T09:12:47Z</time>
      </trkpt>
      <trkpt lat="51.371636884287" lon="4.371595848351717">
        <ele>-19.460000000000001</ele>
        <time>2021-08-08T09:13:11Z</time>
      </trkpt>
      <trkpt lat="51.3716109842062" lon="4.371624095365405">
        <ele>-19.559999999999999</ele>
        <time>2021-08-08T09:13:40Z</time>
      </trkpt>
      <trkpt lat="51.371670830994844" lon="4.371680840849876">
        <ele>-19.59</ele>
        <time>2021-08-08T09:14:01Z</time>
      </trkpt>
      <trkpt lat="51.371641661971807" lon="4.371757367625833">
        <ele>-19.32</ele>
        <time>2021-08-08T09:15:53Z</time>
      </trkpt>
      <trkpt lat="51.371738724410534" lon="4.371854094788432">
        <ele>-19.010000000000002</ele>
        <time>2021-08-08T09:16:44Z</time>
      </trkpt>
      <trkpt lat="51.371803265064955" lon="4.371985103935003">
        <ele>-18.940000000000001</ele>
        <time>2021-08-08T09:16:54Z</time>
      </trkpt>
      <trkpt lat="51.371896807104349" lon="4.372293893247843">
        <ele>-18.84</ele>
        <time>2021-08-08T09:17:09Z</time>
      </trkpt>
      <trkpt lat="51.371906530112028" lon="4.372321637347341">
        <ele>-18.850000000000001</ele>
        <time>2021-08-08T09:17:10Z</time>
      </trkpt>
      <trkpt lat="51.371969226747751" lon="4.372680215165019">
        <ele>-18.73</ele>
        <time>2021-08-08T09:17:29Z</time>
      </trkpt>
      <trkpt lat="51.371986661106348" lon="4.372836202383041">
        <ele>-18.68</ele>
        <time>2021-08-08T09:17:43Z</time>
      </trkpt>
      <trkpt lat="51.371993785724044" lon="4.372874926775694">
        <ele>-18.66</ele>
        <time>2021-08-08T09:17:46Z</time>
      </trkpt>
      <trkpt lat="51.372102750465274" lon="4.373174915090203">
        <ele>-18.550000000000001</ele>
        <time>2021-08-08T09:18:05Z</time>
      </trkpt>
      <trkpt lat="51.372216492891312" lon="4.373740525916219">
        <ele>-18.530000000000001</ele>
        <time>2021-08-08T09:18:27Z</time>
      </trkpt>
      <trkpt lat="51.372224958613515" lon="4.373882850632072">
        <ele>-18.539999999999999</ele>
        <time>2021-08-08T09:18:33Z</time>
      </trkpt>
      <trkpt lat="51.372224036604166" lon="4.373942948877811">
        <ele>-18.530000000000001</ele>
        <time>2021-08-08T09:18:36Z</time>
      </trkpt>
      <trkpt lat="51.372232250869274" lon="4.37396289780736">
        <ele>-18.530000000000001</ele>
        <time>2021-08-08T09:18:37Z</time>
      </trkpt>
      <trkpt lat="51.372327134013176" lon="4.374355589970946">
        <ele>-18.539999999999999</ele>
        <time>2021-08-08T09:18:52Z</time>
      </trkpt>
      <trkpt lat="51.372335013002157" lon="4.37438408844173">
        <ele>-18.550000000000001</ele>
        <time>2021-08-08T09:18:53Z</time>
      </trkpt>
      <trkpt lat="51.372348004952073" lon="4.374446785077453">
        <ele>-18.550000000000001</ele>
        <time>2021-08-08T09:18:55Z</time>
      </trkpt>
      <trkpt lat="51.372360745444894" lon="4.374475786462426">
        <ele>-18.550000000000001</ele>
        <time>2021-08-08T09:18:56Z</time>
      </trkpt>
      <trkpt lat="51.372416401281953" lon="4.37461475841701">
        <ele>-18.57</ele>
        <time>2021-08-08T09:19:00Z</time>
      </trkpt>
      <trkpt lat="51.372501729056239" lon="4.374814750626683">
        <ele>-18.600000000000001</ele>
        <time>2021-08-08T09:19:06Z</time>
      </trkpt>
      <trkpt lat="51.372518660500646" lon="4.374853977933526">
        <ele>-18.600000000000001</ele>
        <time>2021-08-08T09:19:07Z</time>
      </trkpt>
      <trkpt lat="51.372537771239877" lon="4.374876944348216">
        <ele>-18.609999999999999</ele>
        <time>2021-08-08T09:19:08Z</time>
      </trkpt>
      <trkpt lat="51.372546320781112" lon="4.374910555779934">
        <ele>-18.609999999999999</ele>
        <time>2021-08-08T09:19:09Z</time>
      </trkpt>
      <trkpt lat="51.372576747089624" lon="4.375352868810296">
        <ele>-18.73</ele>
        <time>2021-08-08T09:19:19Z</time>
      </trkpt>
      <trkpt lat="51.372563419863582" lon="4.375421851873398">
        <ele>-18.75</ele>
        <time>2021-08-08T09:19:20Z</time>
      </trkpt>
      <trkpt lat="51.372577669098973" lon="4.375460995361209">
        <ele>-18.77</ele>
        <time>2021-08-08T09:19:21Z</time>
      </trkpt>
      <trkpt lat="51.372602228075266" lon="4.375507179647684">
        <ele>-18.789999999999999</ele>
        <time>2021-08-08T09:19:22Z</time>
      </trkpt>
      <trkpt lat="51.372615303844213" lon="4.375587478280067">
        <ele>-18.809999999999999</ele>
        <time>2021-08-08T09:19:23Z</time>
      </trkpt>
      <trkpt lat="51.37262050062418" lon="4.375641709193587">
        <ele>-18.829999999999998</ele>
        <time>2021-08-08T09:19:24Z</time>
      </trkpt>
      <trkpt lat="51.372670708224177" lon="4.375762492418289">
        <ele>-18.879999999999999</ele>
        <time>2021-08-08T09:19:27Z</time>
      </trkpt>
      <trkpt lat="51.37268403545022" lon="4.375809850171208">
        <ele>-18.899999999999999</ele>
        <time>2021-08-08T09:19:28Z</time>
      </trkpt>
      <trkpt lat="51.372703146189451" lon="4.375881850719452">
        <ele>-18.940000000000001</ele>
        <time>2021-08-08T09:19:30Z</time>
      </trkpt>
      <trkpt lat="51.372707253322005" lon="4.375923257321119">
        <ele>-18.960000000000001</ele>
        <time>2021-08-08T09:19:31Z</time>
      </trkpt>
      <trkpt lat="51.372714377939701" lon="4.375973548740149">
        <ele>-18.98</ele>
        <time>2021-08-08T09:19:32Z</time>
      </trkpt>
      <trkpt lat="51.372727369889617" lon="4.376032305881381">
        <ele>-19</ele>
        <time>2021-08-08T09:19:33Z</time>
      </trkpt>
      <trkpt lat="51.372732734307647" lon="4.376067509874702">
        <ele>-19.02</ele>
        <time>2021-08-08T09:19:34Z</time>
      </trkpt>
      <trkpt lat="51.372731477022171" lon="4.376113107427955">
        <ele>-19.039999999999999</ele>
        <time>2021-08-08T09:19:35Z</time>
      </trkpt>
      <trkpt lat="51.372737009078264" lon="4.376159207895398">
        <ele>-19.07</ele>
        <time>2021-08-08T09:19:36Z</time>
      </trkpt>
      <trkpt lat="51.372753018513322" lon="4.376206481829286">
        <ele>-19.09</ele>
        <time>2021-08-08T09:19:37Z</time>
      </trkpt>
      <trkpt lat="51.372756706550717" lon="4.376246044412255">
        <ele>-19.120000000000001</ele>
        <time>2021-08-08T09:19:38Z</time>
      </trkpt>
      <trkpt lat="51.372763412073255" lon="4.376272698864341">
        <ele>-19.140000000000001</ele>
        <time>2021-08-08T09:19:39Z</time>
      </trkpt>
      <trkpt lat="51.372765172272921" lon="4.376321816816926">
        <ele>-19.149999999999999</ele>
        <time>2021-08-08T09:19:40Z</time>
      </trkpt>
      <trkpt lat="51.372776823118329" lon="4.376363726332784">
        <ele>-19.18</ele>
        <time>2021-08-08T09:19:41Z</time>
      </trkpt>
      <trkpt lat="51.372783444821835" lon="4.376407815143466">
        <ele>-19.199999999999999</ele>
        <time>2021-08-08T09:19:42Z</time>
      </trkpt>
      <trkpt lat="51.372819738462567" lon="4.376537818461657">
        <ele>-19.27</ele>
        <time>2021-08-08T09:19:45Z</time>
      </trkpt>
      <trkpt lat="51.372832730412483" lon="4.376566736027598">
        <ele>-19.289999999999999</ele>
        <time>2021-08-08T09:19:46Z</time>
      </trkpt>
      <trkpt lat="51.372839016839862" lon="4.376615267246962">
        <ele>-19.309999999999999</ele>
        <time>2021-08-08T09:19:47Z</time>
      </trkpt>
      <trkpt lat="51.372845638543367" lon="4.37666698358953">
        <ele>-19.329999999999998</ele>
        <time>2021-08-08T09:19:48Z</time>
      </trkpt>
      <trkpt lat="51.372858714312315" lon="4.37672758474946">
        <ele>-19.350000000000001</ele>
        <time>2021-08-08T09:19:49Z</time>
      </trkpt>
      <trkpt lat="51.372857037931681" lon="4.376794220879674">
        <ele>-19.379999999999999</ele>
        <time>2021-08-08T09:19:50Z</time>
      </trkpt>
      <trkpt lat="51.372872963547707" lon="4.376839986070991">
        <ele>-19.399999999999999</ele>
        <time>2021-08-08T09:19:51Z</time>
      </trkpt>
      <trkpt lat="51.372876651585102" lon="4.37689027749002">
        <ele>-19.420000000000002</ele>
        <time>2021-08-08T09:19:52Z</time>
      </trkpt>
      <trkpt lat="51.372894672676921" lon="4.376916931942105">
        <ele>-19.440000000000001</ele>
        <time>2021-08-08T09:19:53Z</time>
      </trkpt>
      <trkpt lat="51.372898863628507" lon="4.376988261938095">
        <ele>-19.469999999999999</ele>
        <time>2021-08-08T09:19:54Z</time>
      </trkpt>
      <trkpt lat="51.372920572757721" lon="4.377239719033241">
        <ele>-19.550000000000001</ele>
        <time>2021-08-08T09:19:58Z</time>
      </trkpt>
      <trkpt lat="51.372931301593781" lon="4.377306858077645">
        <ele>-19.57</ele>
        <time>2021-08-08T09:19:59Z</time>
      </trkpt>
      <trkpt lat="51.372947730123997" lon="4.377350779250264">
        <ele>-19.59</ele>
        <time>2021-08-08T09:20:00Z</time>
      </trkpt>
      <trkpt lat="51.372956447303295" lon="4.377410123124719">
        <ele>-19.609999999999999</ele>
        <time>2021-08-08T09:20:01Z</time>
      </trkpt>
      <trkpt lat="51.372957620769739" lon="4.377477848902345">
        <ele>-19.640000000000001</ele>
        <time>2021-08-08T09:20:02Z</time>
      </trkpt>
      <trkpt lat="51.372958542779088" lon="4.377556890249252">
        <ele>-19.66</ele>
        <time>2021-08-08T09:20:03Z</time>
      </trkpt>
      <trkpt lat="51.373115200549364" lon="4.378191651776433">
        <ele>-19.920000000000002</ele>
        <time>2021-08-08T09:20:13Z</time>
      </trkpt>
      <trkpt lat="51.373240929096937" lon="4.378591300919652">
        <ele>-20.09</ele>
        <time>2021-08-08T09:20:20Z</time>
      </trkpt>
      <trkpt lat="51.373256519436836" lon="4.378636395558715">
        <ele>-20.109999999999999</ele>
        <time>2021-08-08T09:20:21Z</time>
      </trkpt>
      <trkpt lat="51.373449387028813" lon="4.379207286983728">
        <ele>-20.300000000000001</ele>
        <time>2021-08-08T09:20:29Z</time>
      </trkpt>
      <trkpt lat="51.373456427827477" lon="4.379284987226129">
        <ele>-20.329999999999998</ele>
        <time>2021-08-08T09:20:30Z</time>
      </trkpt>
      <trkpt lat="51.373470677062869" lon="4.37934810295701">
        <ele>-20.350000000000001</ele>
        <time>2021-08-08T09:20:31Z</time>
      </trkpt>
      <trkpt lat="51.373479394242167" lon="4.379406860098243">
        <ele>-20.370000000000001</ele>
        <time>2021-08-08T09:20:32Z</time>
      </trkpt>
      <trkpt lat="51.373488195240498" lon="4.379467964172363">
        <ele>-20.390000000000001</ele>
        <time>2021-08-08T09:20:33Z</time>
      </trkpt>
      <trkpt lat="51.373496660962701" lon="4.37953619286418">
        <ele>-20.420000000000002</ele>
        <time>2021-08-08T09:20:34Z</time>
      </trkpt>
      <trkpt lat="51.373505713418126" lon="4.379597213119268">
        <ele>-20.440000000000001</ele>
        <time>2021-08-08T09:20:35Z</time>
      </trkpt>
      <trkpt lat="51.373516358435154" lon="4.37965395860374">
        <ele>-20.469999999999999</ele>
        <time>2021-08-08T09:20:36Z</time>
      </trkpt>
      <trkpt lat="51.373534798622131" lon="4.379690922796726">
        <ele>-20.5</ele>
        <time>2021-08-08T09:20:37Z</time>
      </trkpt>
      <trkpt lat="51.373547706753016" lon="4.379739621654153">
        <ele>-20.52</ele>
        <time>2021-08-08T09:20:38Z</time>
      </trkpt>
      <trkpt lat="51.373530859127641" lon="4.379841461777687">
        <ele>-20.539999999999999</ele>
        <time>2021-08-08T09:20:39Z</time>
      </trkpt>
      <trkpt lat="51.373539492487907" lon="4.379891669377685">
        <ele>-19.789999999999999</ele>
        <time>2021-08-08T09:20:40Z</time>
      </trkpt>
      <trkpt lat="51.373557262122631" lon="4.380097193643451">
        <ele>-19.870000000000001</ele>
        <time>2021-08-08T09:20:43Z</time>
      </trkpt>
      <trkpt lat="51.373907877132297" lon="4.381654215976596">
        <ele>-20.629999999999999</ele>
        <time>2021-08-08T09:21:11Z</time>
      </trkpt>
      <trkpt lat="51.373998820781708" lon="4.381827134639025">
        <ele>-20.739999999999998</ele>
        <time>2021-08-08T09:21:18Z</time>
      </trkpt>
      <trkpt lat="51.374009381979704" lon="4.381957892328501">
        <ele>-20.789999999999999</ele>
        <time>2021-08-08T09:21:22Z</time>
      </trkpt>
      <trkpt lat="51.374011896550655" lon="4.382014805451036">
        <ele>-20.82</ele>
        <time>2021-08-08T09:21:24Z</time>
      </trkpt>
      <trkpt lat="51.37401700951159" lon="4.382044728845358">
        <ele>-20.829999999999998</ele>
        <time>2021-08-08T09:21:25Z</time>
      </trkpt>
      <trkpt lat="51.374237537384033" lon="4.382568430155516">
        <ele>-21.07</ele>
        <time>2021-08-08T09:21:51Z</time>
      </trkpt>
      <trkpt lat="51.374390926212072" lon="4.382591061294079">
        <ele>-21.18</ele>
        <time>2021-08-08T09:22:12Z</time>
      </trkpt>
      <trkpt lat="51.374406181275845" lon="4.382627103477716">
        <ele>-21.199999999999999</ele>
        <time>2021-08-08T09:22:15Z</time>
      </trkpt>
      <trkpt lat="51.374516235664487" lon="4.382908903062344">
        <ele>-21.329999999999998</ele>
        <time>2021-08-08T09:22:33Z</time>
      </trkpt>
      <trkpt lat="51.37463852763176" lon="4.383179973810911">
        <ele>-21.510000000000002</ele>
        <time>2021-08-08T09:22:53Z</time>
      </trkpt>
      <trkpt lat="51.37470256537199" lon="4.383552884683013">
        <ele>-21.699999999999999</ele>
        <time>2021-08-08T09:23:11Z</time>
      </trkpt>
      <trkpt lat="51.374746989458799" lon="4.383856896311045">
        <ele>-21.829999999999998</ele>
        <time>2021-08-08T09:23:26Z</time>
      </trkpt>
      <trkpt lat="51.374846817925572" lon="4.384284038096666">
        <ele>-21.960000000000001</ele>
        <time>2021-08-08T09:23:45Z</time>
      </trkpt>
      <trkpt lat="51.37493072077632" lon="4.384603640064597">
        <ele>-22.010000000000002</ele>
        <time>2021-08-08T09:23:59Z</time>
      </trkpt>
      <trkpt lat="51.374989561736584" lon="4.384916117414832">
        <ele>-22.02</ele>
        <time>2021-08-08T09:24:12Z</time>
      </trkpt>
      <trkpt lat="51.374996937811375" lon="4.384943190962076">
        <ele>-22.02</ele>
        <time>2021-08-08T09:24:13Z</time>
      </trkpt>
      <trkpt lat="51.375002972781658" lon="4.384965570643544">
        <ele>-22.02</ele>
        <time>2021-08-08T09:24:14Z</time>
      </trkpt>
      <trkpt lat="51.375063406303525" lon="4.385269749909639">
        <ele>-22.559999999999999</ele>
        <time>2021-08-08T09:24:28Z</time>
      </trkpt>
      <trkpt lat="51.375198690220714" lon="4.385783476755023">
        <ele>-22.469999999999999</ele>
        <time>2021-08-08T09:24:54Z</time>
      </trkpt>
      <trkpt lat="51.375184189528227" lon="4.385852795094252">
        <ele>-21.300000000000001</ele>
        <time>2021-08-08T09:24:58Z</time>
      </trkpt>
      <trkpt lat="51.375195002183318" lon="4.38610777258873">
        <ele>-21.210000000000001</ele>
        <time>2021-08-08T09:25:12Z</time>
      </trkpt>
      <trkpt lat="51.375222159549594" lon="4.386541368439794">
        <ele>-21.120000000000001</ele>
        <time>2021-08-08T09:25:32Z</time>
      </trkpt>
      <trkpt lat="51.375252334401011" lon="4.387060375884175">
        <ele>-21.059999999999999</ele>
        <time>2021-08-08T09:25:54Z</time>
      </trkpt>
      <trkpt lat="51.37530698440969" lon="4.387456169351935">
        <ele>-20.989999999999998</ele>
        <time>2021-08-08T09:26:14Z</time>
      </trkpt>
      <trkpt lat="51.375334309414029" lon="4.387737801298499">
        <ele>-20.940000000000001</ele>
        <time>2021-08-08T09:26:31Z</time>
      </trkpt>
      <trkpt lat="51.375377727672458" lon="4.388145329430699">
        <ele>-20.879999999999999</ele>
        <time>2021-08-08T09:26:50Z</time>
      </trkpt>
      <trkpt lat="51.375417122617364" lon="4.388470379635692">
        <ele>-20.809999999999999</ele>
        <time>2021-08-08T09:27:08Z</time>
      </trkpt>
      <trkpt lat="51.375420475378633" lon="4.388523520901799">
        <ele>-20.800000000000001</ele>
        <time>2021-08-08T09:27:11Z</time>
      </trkpt>
      <trkpt lat="51.375421984121203" lon="4.388546152040362">
        <ele>-20.800000000000001</ele>
        <time>2021-08-08T09:27:12Z</time>
      </trkpt>
      <trkpt lat="51.375419721007347" lon="4.388610776513815">
        <ele>-20.77</ele>
        <time>2021-08-08T09:27:31Z</time>
      </trkpt>
      <trkpt lat="51.37545308098197" lon="4.3889085855335">
        <ele>-20.710000000000001</ele>
        <time>2021-08-08T09:27:47Z</time>
      </trkpt>
      <trkpt lat="51.375474287196994" lon="4.389148307964206">
        <ele>-20.66</ele>
        <time>2021-08-08T09:28:02Z</time>
      </trkpt>
      <trkpt lat="51.375531535595655" lon="4.389614844694734">
        <ele>-20.57</ele>
        <time>2021-08-08T09:28:21Z</time>
      </trkpt>
      <trkpt lat="51.375594148412347" lon="4.390020361170173">
        <ele>-20.460000000000001</ele>
        <time>2021-08-08T09:28:41Z</time>
      </trkpt>
      <trkpt lat="51.375634633004665" lon="4.390281708911061">
        <ele>-19.73</ele>
        <time>2021-08-08T09:28:53Z</time>
      </trkpt>
      <trkpt lat="51.375681990757585" lon="4.39052009023726">
        <ele>-19.640000000000001</ele>
        <time>2021-08-08T09:29:08Z</time>
      </trkpt>
      <trkpt lat="51.375712500885129" lon="4.390889145433903">
        <ele>-19.579999999999998</ele>
        <time>2021-08-08T09:29:29Z</time>
      </trkpt>
      <trkpt lat="51.375761115923524" lon="4.391080923378468">
        <ele>-19.57</ele>
        <time>2021-08-08T09:29:39Z</time>
      </trkpt>
      <trkpt lat="51.375799924135208" lon="4.391375882551074">
        <ele>-19.57</ele>
        <time>2021-08-08T09:29:57Z</time>
      </trkpt>
      <trkpt lat="51.375805288553238" lon="4.391409996896982">
        <ele>-21.829999999999998</ele>
        <time>2021-08-08T09:29:59Z</time>
      </trkpt>
      <trkpt lat="51.375866727903485" lon="4.391665728762746">
        <ele>-21.809999999999999</ele>
        <time>2021-08-08T09:30:13Z</time>
      </trkpt>
      <trkpt lat="51.375866727903485" lon="4.39168450422585">
        <ele>-21.829999999999998</ele>
        <time>2021-08-08T09:30:14Z</time>
      </trkpt>
      <trkpt lat="51.375903021544218" lon="4.39204316586256">
        <ele>-21.879999999999999</ele>
        <time>2021-08-08T09:30:30Z</time>
      </trkpt>
      <trkpt lat="51.375983990728855" lon="4.392265118658543">
        <ele>-21.920000000000002</ele>
        <time>2021-08-08T09:30:44Z</time>
      </trkpt>
      <trkpt lat="51.376075185835361" lon="4.392542140558362">
        <ele>-22.010000000000002</ele>
        <time>2021-08-08T09:31:01Z</time>
      </trkpt>
      <trkpt lat="51.376117011532187" lon="4.392949501052499">
        <ele>-22.039999999999999</ele>
        <time>2021-08-08T09:31:17Z</time>
      </trkpt>
      <trkpt lat="51.376190353184938" lon="4.393264995887876">
        <ele>-22.129999999999999</ele>
        <time>2021-08-08T09:31:35Z</time>
      </trkpt>
      <trkpt lat="51.376192700117826" lon="4.393282933160663">
        <ele>-22.140000000000001</ele>
        <time>2021-08-08T09:31:36Z</time>
      </trkpt>
      <trkpt lat="51.376217678189278" lon="4.393428442999721">
        <ele>-22.18</ele>
        <time>2021-08-08T09:31:43Z</time>
      </trkpt>
      <trkpt lat="51.376225473359227" lon="4.393457276746631">
        <ele>-22.18</ele>
        <time>2021-08-08T09:31:44Z</time>
      </trkpt>
      <trkpt lat="51.376270903274417" lon="4.393810406327248">
        <ele>-22.280000000000001</ele>
        <time>2021-08-08T09:31:57Z</time>
      </trkpt>
      <trkpt lat="51.37632773257792" lon="4.394242744892836">
        <ele>-22.460000000000001</ele>
        <time>2021-08-08T09:32:16Z</time>
      </trkpt>
      <trkpt lat="51.376443570479751" lon="4.39464507624507">
        <ele>-22.539999999999999</ele>
        <time>2021-08-08T09:32:34Z</time>
      </trkpt>
      <trkpt lat="51.376604754477739" lon="4.394984627142549">
        <ele>-22.84</ele>
        <time>2021-08-08T09:32:53Z</time>
      </trkpt>
      <trkpt lat="51.376757388934493" lon="4.395417720079422">
        <ele>-23.120000000000001</ele>
        <time>2021-08-08T09:33:14Z</time>
      </trkpt>
      <trkpt lat="51.376952854916453" lon="4.395841341465712">
        <ele>-23.420000000000002</ele>
        <time>2021-08-08T09:33:33Z</time>
      </trkpt>
      <trkpt lat="51.377065842971206" lon="4.396194722503424">
        <ele>-23.719999999999999</ele>
        <time>2021-08-08T09:33:51Z</time>
      </trkpt>
      <trkpt lat="51.377082020044327" lon="4.396232189610601">
        <ele>-23.73</ele>
        <time>2021-08-08T09:33:53Z</time>
      </trkpt>
      <trkpt lat="51.377093838527799" lon="4.3962477799505">
        <ele>-23.739999999999998</ele>
        <time>2021-08-08T09:33:54Z</time>
      </trkpt>
      <trkpt lat="51.377107501029968" lon="4.396256497129798">
        <ele>-23.780000000000001</ele>
        <time>2021-08-08T09:33:55Z</time>
      </trkpt>
      <trkpt lat="51.377226104959846" lon="4.396646339446306">
        <ele>-24.09</ele>
        <time>2021-08-08T09:34:13Z</time>
      </trkpt>
      <trkpt lat="51.37723314575851" lon="4.396682130172849">
        <ele>-24.100000000000001</ele>
        <time>2021-08-08T09:34:14Z</time>
      </trkpt>
      <trkpt lat="51.377273127436638" lon="4.396768882870674">
        <ele>-21.690000000000001</ele>
        <time>2021-08-08T09:34:18Z</time>
      </trkpt>
      <trkpt lat="51.377385025843978" lon="4.397175991907716">
        <ele>-22</ele>
        <time>2021-08-08T09:34:36Z</time>
      </trkpt>
      <trkpt lat="51.377482758834958" lon="4.397321585565805">
        <ele>-22.120000000000001</ele>
        <time>2021-08-08T09:34:43Z</time>
      </trkpt>
      <trkpt lat="51.377517879009247" lon="4.397398699074984">
        <ele>-22.190000000000001</ele>
        <time>2021-08-08T09:34:46Z</time>
      </trkpt>
      <trkpt lat="51.377529948949814" lon="4.397417809814215">
        <ele>-22.190000000000001</ele>
        <time>2021-08-08T09:34:47Z</time>
      </trkpt>
      <trkpt lat="51.377543192356825" lon="4.397465502843261">
        <ele>-22.239999999999998</ele>
        <time>2021-08-08T09:34:49Z</time>
      </trkpt>
      <trkpt lat="51.377555932849646" lon="4.397500539198518">
        <ele>-22.239999999999998</ele>
        <time>2021-08-08T09:34:50Z</time>
      </trkpt>
      <trkpt lat="51.377566242590547" lon="4.397541945800185">
        <ele>-22.260000000000002</ele>
        <time>2021-08-08T09:34:52Z</time>
      </trkpt>
      <trkpt lat="51.377622149884701" lon="4.397667003795505">
        <ele>-22.350000000000001</ele>
        <time>2021-08-08T09:34:58Z</time>
      </trkpt>
      <trkpt lat="51.37777210213244" lon="4.398025833070278">
        <ele>-22.609999999999999</ele>
        <time>2021-08-08T09:35:14Z</time>
      </trkpt>
      <trkpt lat="51.377862794324756" lon="4.398225909098983">
        <ele>-22.789999999999999</ele>
        <time>2021-08-08T09:35:25Z</time>
      </trkpt>
      <trkpt lat="51.377930771559477" lon="4.398391954600811">
        <ele>-22.890000000000001</ele>
        <time>2021-08-08T09:35:35Z</time>
      </trkpt>
      <trkpt lat="51.377972094342113" lon="4.398453058674932">
        <ele>-22.93</ele>
        <time>2021-08-08T09:35:39Z</time>
      </trkpt>
      <trkpt lat="51.378146186470985" lon="4.398858156055212">
        <ele>-23.16</ele>
        <time>2021-08-08T09:35:57Z</time>
      </trkpt>
      <trkpt lat="51.378158424049616" lon="4.398889504373074">
        <ele>-23.170000000000002</ele>
        <time>2021-08-08T09:35:58Z</time>
      </trkpt>
      <trkpt lat="51.378281302750111" lon="4.399207513779402">
        <ele>-23.359999999999999</ele>
        <time>2021-08-08T09:36:13Z</time>
      </trkpt>
      <trkpt lat="51.3783267326653" lon="4.399272473528981">
        <ele>-23.43</ele>
        <time>2021-08-08T09:36:17Z</time>
      </trkpt>
      <trkpt lat="51.378461513668299" lon="4.399585956707597">
        <ele>-23.609999999999999</ele>
        <time>2021-08-08T09:36:33Z</time>
      </trkpt>
      <trkpt lat="51.378624960780144" lon="4.39992181956768">
        <ele>-23.739999999999998</ele>
        <time>2021-08-08T09:36:49Z</time>
      </trkpt>
      <trkpt lat="51.378755802288651" lon="4.400260699912906">
        <ele>-23.920000000000002</ele>
        <time>2021-08-08T09:37:06Z</time>
      </trkpt>
      <trkpt lat="51.378863174468279" lon="4.400609638541937">
        <ele>-24.100000000000001</ele>
        <time>2021-08-08T09:37:23Z</time>
      </trkpt>
      <trkpt lat="51.378868287429214" lon="4.400630928575993">
        <ele>-24.109999999999999</ele>
        <time>2021-08-08T09:37:24Z</time>
      </trkpt>
      <trkpt lat="51.378966355696321" lon="4.400822119787335">
        <ele>-23.43</ele>
        <time>2021-08-08T09:37:34Z</time>
      </trkpt>
      <trkpt lat="51.379021843895316" lon="4.400896802544594">
        <ele>-23.460000000000001</ele>
        <time>2021-08-08T09:37:38Z</time>
      </trkpt>
      <trkpt lat="51.379040200263262" lon="4.400911387056112">
        <ele>-23.469999999999999</ele>
        <time>2021-08-08T09:37:39Z</time>
      </trkpt>
      <trkpt lat="51.379055120050907" lon="4.400937287136912">
        <ele>-23.489999999999998</ele>
        <time>2021-08-08T09:37:40Z</time>
      </trkpt>
      <trkpt lat="51.37906794436276" lon="4.400978358462453">
        <ele>-23.510000000000002</ele>
        <time>2021-08-08T09:37:41Z</time>
      </trkpt>
      <trkpt lat="51.379086887463927" lon="4.401001827791333">
        <ele>-23.52</ele>
        <time>2021-08-08T09:37:42Z</time>
      </trkpt>
      <trkpt lat="51.379104657098651" lon="4.401027141138911">
        <ele>-23.539999999999999</ele>
        <time>2021-08-08T09:37:43Z</time>
      </trkpt>
      <trkpt lat="51.379122175276279" lon="4.401069888845086">
        <ele>-26.93</ele>
        <time>2021-08-08T09:37:44Z</time>
      </trkpt>
      <trkpt lat="51.379134831950068" lon="4.401119509711862">
        <ele>-24.16</ele>
        <time>2021-08-08T09:37:45Z</time>
      </trkpt>
      <trkpt lat="51.379152853041887" lon="4.401166364550591">
        <ele>-24.149999999999999</ele>
        <time>2021-08-08T09:37:46Z</time>
      </trkpt>
      <trkpt lat="51.379174813628197" lon="4.401218080893159">
        <ele>-24.149999999999999</ele>
        <time>2021-08-08T09:37:47Z</time>
      </trkpt>
      <trkpt lat="51.379194343462586" lon="4.401246914640069">
        <ele>-24.170000000000002</ele>
        <time>2021-08-08T09:37:48Z</time>
      </trkpt>
      <trkpt lat="51.379212783649564" lon="4.401263762265444">
        <ele>-24.18</ele>
        <time>2021-08-08T09:37:49Z</time>
      </trkpt>
      <trkpt lat="51.37922334484756" lon="4.401294188573957">
        <ele>-24.190000000000001</ele>
        <time>2021-08-08T09:37:50Z</time>
      </trkpt>
      <trkpt lat="51.379238599911332" lon="4.401337774470449">
        <ele>-24.219999999999999</ele>
        <time>2021-08-08T09:37:51Z</time>
      </trkpt>
      <trkpt lat="51.379255531355739" lon="4.401375073939562">
        <ele>-24.23</ele>
        <time>2021-08-08T09:37:52Z</time>
      </trkpt>
      <trkpt lat="51.379269445315003" lon="4.401417905464768">
        <ele>-24.23</ele>
        <time>2021-08-08T09:37:53Z</time>
      </trkpt>
      <trkpt lat="51.379414033144712" lon="4.40167305059731">
        <ele>-24.289999999999999</ele>
        <time>2021-08-08T09:37:59Z</time>
      </trkpt>
      <trkpt lat="51.379448566585779" lon="4.40175561234355">
        <ele>-24.32</ele>
        <time>2021-08-08T09:38:01Z</time>
      </trkpt>
      <trkpt lat="51.379462145268917" lon="4.401787715032697">
        <ele>-24.32</ele>
        <time>2021-08-08T09:38:02Z</time>
      </trkpt>
      <trkpt lat="51.3794837705791" lon="4.401857536286116">
        <ele>-24.329999999999998</ele>
        <time>2021-08-08T09:38:03Z</time>
      </trkpt>
      <trkpt lat="51.379664232954383" lon="4.402470840141177">
        <ele>-23.73</ele>
        <time>2021-08-08T09:38:14Z</time>
      </trkpt>
      <trkpt lat="51.379898507148027" lon="4.403174668550491">
        <ele>-23.890000000000001</ele>
        <time>2021-08-08T09:38:26Z</time>
      </trkpt>
      <trkpt lat="51.380087183788419" lon="4.403728796169162">
        <ele>-24.030000000000001</ele>
        <time>2021-08-08T09:38:37Z</time>
      </trkpt>
      <trkpt lat="51.380300335586071" lon="4.404207821935415">
        <ele>-26.66</ele>
        <time>2021-08-08T09:38:47Z</time>
      </trkpt>
      <trkpt lat="51.380465710535645" lon="4.404612835496664">
        <ele>-23.620000000000001</ele>
        <time>2021-08-08T09:38:55Z</time>
      </trkpt>
      <trkpt lat="51.380645334720612" lon="4.404949620366097">
        <ele>-23.780000000000001</ele>
        <time>2021-08-08T09:39:05Z</time>
      </trkpt>
      <trkpt lat="51.380673917010427" lon="4.40499035641551">
        <ele>-23.829999999999998</ele>
        <time>2021-08-08T09:39:07Z</time>
      </trkpt>
      <trkpt lat="51.380699314177036" lon="4.405060429126024">
        <ele>-23.879999999999999</ele>
        <time>2021-08-08T09:39:10Z</time>
      </trkpt>
      <trkpt lat="51.38086854480207" lon="4.405567869544029">
        <ele>-23.210000000000001</ele>
        <time>2021-08-08T09:39:30Z</time>
      </trkpt>
      <trkpt lat="51.381023023277521" lon="4.405676582828164">
        <ele>-23.370000000000001</ele>
        <time>2021-08-08T09:39:40Z</time>
      </trkpt>
      <trkpt lat="51.381032913923264" lon="4.405694855377078">
        <ele>-23.370000000000001</ele>
        <time>2021-08-08T09:39:41Z</time>
      </trkpt>
      <trkpt lat="51.381046492606401" lon="4.405703656375408">
        <ele>-23.390000000000001</ele>
        <time>2021-08-08T09:39:42Z</time>
      </trkpt>
      <trkpt lat="51.381248831748962" lon="4.405768280848861">
        <ele>-23.559999999999999</ele>
        <time>2021-08-08T09:39:56Z</time>
      </trkpt>
      <trkpt lat="51.381541024893522" lon="4.405925273895264">
        <ele>-23.640000000000001</ele>
        <time>2021-08-08T09:40:13Z</time>
      </trkpt>
      <trkpt lat="51.381708243861794" lon="4.406072124838829">
        <ele>-23.73</ele>
        <time>2021-08-08T09:40:25Z</time>
      </trkpt>
      <trkpt lat="51.381800277158618" lon="4.406281504780054">
        <ele>-23.77</ele>
        <time>2021-08-08T09:40:35Z</time>
      </trkpt>
      <trkpt lat="51.381809916347265" lon="4.406295670196414">
        <ele>-23.77</ele>
        <time>2021-08-08T09:40:36Z</time>
      </trkpt>
      <trkpt lat="51.381859201937914" lon="4.406390050426126">
        <ele>-23.780000000000001</ele>
        <time>2021-08-08T09:40:41Z</time>
      </trkpt>
      <trkpt lat="51.381873283535242" lon="4.40641226246953">
        <ele>-23.780000000000001</ele>
        <time>2021-08-08T09:40:42Z</time>
      </trkpt>
      <trkpt lat="51.381886443123221" lon="4.406419722363353">
        <ele>-23.789999999999999</ele>
        <time>2021-08-08T09:40:43Z</time>
      </trkpt>
      <trkpt lat="51.382020805031061" lon="4.406515778973699">
        <ele>-23.760000000000002</ele>
        <time>2021-08-08T09:40:54Z</time>
      </trkpt>
      <trkpt lat="51.382168745622039" lon="4.406611584126949">
        <ele>-23.73</ele>
        <time>2021-08-08T09:41:05Z</time>
      </trkpt>
      <trkpt lat="51.382236806675792" lon="4.406670173630118">
        <ele>-23.699999999999999</ele>
        <time>2021-08-08T09:41:12Z</time>
      </trkpt>
      <trkpt lat="51.382534364238381" lon="4.406734295189381">
        <ele>-23.68</ele>
        <time>2021-08-08T09:41:32Z</time>
      </trkpt>
      <trkpt lat="51.382833933457732" lon="4.406788442283869">
        <ele>-23.539999999999999</ele>
        <time>2021-08-08T09:41:52Z</time>
      </trkpt>
      <trkpt lat="51.383003331720829" lon="4.40683638677001">
        <ele>-23.449999999999999</ele>
        <time>2021-08-08T09:42:03Z</time>
      </trkpt>
      <trkpt lat="51.383061837404966" lon="4.406865807250142">
        <ele>-22.530000000000001</ele>
        <time>2021-08-08T09:42:07Z</time>
      </trkpt>
      <trkpt lat="51.383079523220658" lon="4.40686865709722">
        <ele>-22.539999999999999</ele>
        <time>2021-08-08T09:42:08Z</time>
      </trkpt>
      <trkpt lat="51.383159402757883" lon="4.40688231959939">
        <ele>-25.239999999999998</ele>
        <time>2021-08-08T09:42:12Z</time>
      </trkpt>
      <trkpt lat="51.383202066645026" lon="4.406893467530608">
        <ele>-25.199999999999999</ele>
        <time>2021-08-08T09:42:14Z</time>
      </trkpt>
      <trkpt lat="51.383221261203289" lon="4.406894221901894">
        <ele>-26.440000000000001</ele>
        <time>2021-08-08T09:42:15Z</time>
      </trkpt>
      <trkpt lat="51.383247496560216" lon="4.406892964616418">
        <ele>-22.850000000000001</ele>
        <time>2021-08-08T09:42:16Z</time>
      </trkpt>
      <trkpt lat="51.383270211517811" lon="4.40689405426383">
        <ele>-22.859999999999999</ele>
        <time>2021-08-08T09:42:17Z</time>
      </trkpt>
      <trkpt lat="51.383290998637676" lon="4.406893635168672">
        <ele>-22.879999999999999</ele>
        <time>2021-08-08T09:42:18Z</time>
      </trkpt>
      <trkpt lat="51.383365010842681" lon="4.406891874969006">
        <ele>-22.84</ele>
        <time>2021-08-08T09:42:21Z</time>
      </trkpt>
      <trkpt lat="51.383390156552196" lon="4.40689061768353">
        <ele>-22.789999999999999</ele>
        <time>2021-08-08T09:42:22Z</time>
      </trkpt>
      <trkpt lat="51.383412703871727" lon="4.406892294064164">
        <ele>-22.789999999999999</ele>
        <time>2021-08-08T09:42:23Z</time>
      </trkpt>
      <trkpt lat="51.383436424657702" lon="4.406890450045466">
        <ele>-22.780000000000001</ele>
        <time>2021-08-08T09:42:24Z</time>
      </trkpt>
      <trkpt lat="51.383455703034997" lon="4.406882068142295">
        <ele>-22.77</ele>
        <time>2021-08-08T09:42:25Z</time>
      </trkpt>
      <trkpt lat="51.38347833417356" lon="4.406870668753982">
        <ele>-22.710000000000001</ele>
        <time>2021-08-08T09:42:26Z</time>
      </trkpt>
      <trkpt lat="51.383497277274728" lon="4.406863208860159">
        <ele>-22.66</ele>
        <time>2021-08-08T09:42:27Z</time>
      </trkpt>
      <trkpt lat="51.383515382185578" lon="4.406852060928941">
        <ele>-22.629999999999999</ele>
        <time>2021-08-08T09:42:28Z</time>
      </trkpt>
      <trkpt lat="51.383542707189918" lon="4.406848289072514">
        <ele>-22.600000000000001</ele>
        <time>2021-08-08T09:42:30Z</time>
      </trkpt>
      <trkpt lat="51.383700035512447" lon="4.406826663762331">
        <ele>-22.370000000000001</ele>
        <time>2021-08-08T09:42:41Z</time>
      </trkpt>
      <trkpt lat="51.383888041600585" lon="4.406844601035118">
        <ele>-22.16</ele>
        <time>2021-08-08T09:42:56Z</time>
      </trkpt>
      <trkpt lat="51.384161291643977" lon="4.406779054552317">
        <ele>-21.93</ele>
        <time>2021-08-08T09:43:12Z</time>
      </trkpt>
      <trkpt lat="51.384461112320423" lon="4.406805960461497">
        <ele>-21.739999999999998</ele>
        <time>2021-08-08T09:43:25Z</time>
      </trkpt>
      <trkpt lat="51.384648364037275" lon="4.40682121552527">
        <ele>-21.550000000000001</ele>
        <time>2021-08-08T09:43:37Z</time>
      </trkpt>
      <trkpt lat="51.384757664054632" lon="4.40682565793395">
        <ele>-21.43</ele>
        <time>2021-08-08T09:43:44Z</time>
      </trkpt>
      <trkpt lat="51.384776942431927" lon="4.406824484467506">
        <ele>-21.41</ele>
        <time>2021-08-08T09:43:45Z</time>
      </trkpt>
      <trkpt lat="51.384794125333428" lon="4.406827166676521">
        <ele>-21.390000000000001</ele>
        <time>2021-08-08T09:43:46Z</time>
      </trkpt>
      <trkpt lat="51.384818181395531" lon="4.406833117827773">
        <ele>-21.379999999999999</ele>
        <time>2021-08-08T09:43:47Z</time>
      </trkpt>
      <trkpt lat="51.384835112839937" lon="4.406835548579693">
        <ele>-21.359999999999999</ele>
        <time>2021-08-08T09:43:48Z</time>
      </trkpt>
      <trkpt lat="51.384859001263976" lon="4.406838314607739">
        <ele>-21.34</ele>
        <time>2021-08-08T09:43:49Z</time>
      </trkpt>
      <trkpt lat="51.384877692908049" lon="4.406840912997723">
        <ele>-21.329999999999998</ele>
        <time>2021-08-08T09:43:50Z</time>
      </trkpt>
      <trkpt lat="51.384894624352455" lon="4.40683932043612">
        <ele>-21.309999999999999</ele>
        <time>2021-08-08T09:43:51Z</time>
      </trkpt>
      <trkpt lat="51.384919350966811" lon="4.406841667369008">
        <ele>-21.289999999999999</ele>
        <time>2021-08-08T09:43:52Z</time>
      </trkpt>
      <trkpt lat="51.384937623515725" lon="4.406840242445469">
        <ele>-21.280000000000001</ele>
        <time>2021-08-08T09:43:53Z</time>
      </trkpt>
      <trkpt lat="51.384958829730749" lon="4.406838482245803">
        <ele>-21.27</ele>
        <time>2021-08-08T09:43:54Z</time>
      </trkpt>
      <trkpt lat="51.384978694841266" lon="4.406838733702898">
        <ele>-21.239999999999998</ele>
        <time>2021-08-08T09:43:55Z</time>
      </trkpt>
      <trkpt lat="51.38499797321856" lon="4.406833117827773">
        <ele>-21.23</ele>
        <time>2021-08-08T09:43:56Z</time>
      </trkpt>
      <trkpt lat="51.385013479739428" lon="4.406828843057156">
        <ele>-21.219999999999999</ele>
        <time>2021-08-08T09:43:57Z</time>
      </trkpt>
      <trkpt lat="51.385198552161455" lon="4.406870752573013">
        <ele>-21.02</ele>
        <time>2021-08-08T09:44:09Z</time>
      </trkpt>
      <trkpt lat="51.385217495262623" lon="4.406873350962997">
        <ele>-20.98</ele>
        <time>2021-08-08T09:44:10Z</time>
      </trkpt>
      <trkpt lat="51.385236522182822" lon="4.406875362619758">
        <ele>-20.98</ele>
        <time>2021-08-08T09:44:11Z</time>
      </trkpt>
      <trkpt lat="51.385406339541078" lon="4.406874859705567">
        <ele>-20.739999999999998</ele>
        <time>2021-08-08T09:44:23Z</time>
      </trkpt>
      <trkpt lat="51.385592669248581" lon="4.406998073682189">
        <ele>-20.52</ele>
        <time>2021-08-08T09:44:37Z</time>
      </trkpt>
      <trkpt lat="51.385737592354417" lon="4.407132100313902">
        <ele>-20.370000000000001</ele>
        <time>2021-08-08T09:44:49Z</time>
      </trkpt>
      <trkpt lat="51.385984439402819" lon="4.407242992892861">
        <ele>-20.170000000000002</ele>
        <time>2021-08-08T09:45:09Z</time>
      </trkpt>
      <trkpt lat="51.386091224849224" lon="4.407365284860134">
        <ele>-20.170000000000002</ele>
        <time>2021-08-08T09:45:17Z</time>
      </trkpt>
      <trkpt lat="51.386170350015163" lon="4.407345335930586">
        <ele>-20.09</ele>
        <time>2021-08-08T09:45:31Z</time>
      </trkpt>
      <trkpt lat="51.386185018345714" lon="4.407346174120903">
        <ele>-20.07</ele>
        <time>2021-08-08T09:45:33Z</time>
      </trkpt>
      <trkpt lat="51.386327594518661" lon="4.407358327880502">
        <ele>-19.699999999999999</ele>
        <time>2021-08-08T09:45:59Z</time>
      </trkpt>
      <trkpt lat="51.386333545669913" lon="4.407381797209382">
        <ele>-19.690000000000001</ele>
        <time>2021-08-08T09:46:00Z</time>
      </trkpt>
      <trkpt lat="51.386359110474586" lon="4.407437285408378">
        <ele>-19.640000000000001</ele>
        <time>2021-08-08T09:46:03Z</time>
      </trkpt>
      <trkpt lat="51.386366486549377" lon="4.407455893233419">
        <ele>-19.609999999999999</ele>
        <time>2021-08-08T09:46:04Z</time>
      </trkpt>
      <trkpt lat="51.386429518461227" lon="4.407552452757955">
        <ele>-19.530000000000001</ele>
        <time>2021-08-08T09:46:10Z</time>
      </trkpt>
      <trkpt lat="51.386440750211477" lon="4.407563181594014">
        <ele>-19.52</ele>
        <time>2021-08-08T09:46:11Z</time>
      </trkpt>
      <trkpt lat="51.386503027752042" lon="4.407640630379319">
        <ele>-19.440000000000001</ele>
        <time>2021-08-08T09:46:18Z</time>
      </trkpt>
      <trkpt lat="51.38651467859745" lon="4.40765094012022">
        <ele>-19.440000000000001</ele>
        <time>2021-08-08T09:46:19Z</time>
      </trkpt>
      <trkpt lat="51.386526161804795" lon="4.407660411670804">
        <ele>-19.43</ele>
        <time>2021-08-08T09:46:20Z</time>
      </trkpt>
      <trkpt lat="51.386536723002791" lon="4.407669464126229">
        <ele>-19.420000000000002</ele>
        <time>2021-08-08T09:46:21Z</time>
      </trkpt>
      <trkpt lat="51.386544769629836" lon="4.407677929848433">
        <ele>-19.41</ele>
        <time>2021-08-08T09:46:22Z</time>
      </trkpt>
      <trkpt lat="51.386557258665562" lon="4.407719084993005">
        <ele>-19.370000000000001</ele>
        <time>2021-08-08T09:46:24Z</time>
      </trkpt>
      <trkpt lat="51.386564299464226" lon="4.407744146883488">
        <ele>-19.359999999999999</ele>
        <time>2021-08-08T09:46:25Z</time>
      </trkpt>
      <trkpt lat="51.38656790368259" lon="4.407771388068795">
        <ele>-19.350000000000001</ele>
        <time>2021-08-08T09:46:26Z</time>
      </trkpt>
      <trkpt lat="51.386572429910302" lon="4.40779410302639">
        <ele>-19.34</ele>
        <time>2021-08-08T09:46:27Z</time>
      </trkpt>
      <trkpt lat="51.386581314727664" lon="4.407822601497173">
        <ele>-19.32</ele>
        <time>2021-08-08T09:46:28Z</time>
      </trkpt>
      <trkpt lat="51.38659237883985" lon="4.407842801883817">
        <ele>-19.32</ele>
        <time>2021-08-08T09:46:29Z</time>
      </trkpt>
      <trkpt lat="51.38667393475771" lon="4.408067688345909">
        <ele>-19.190000000000001</ele>
        <time>2021-08-08T09:46:41Z</time>
      </trkpt>
      <trkpt lat="51.386746354401112" lon="4.40813516266644">
        <ele>-19.109999999999999</ele>
        <time>2021-08-08T09:46:50Z</time>
      </trkpt>
      <trkpt lat="51.386777199804783" lon="4.408153602853417">
        <ele>-19.09</ele>
        <time>2021-08-08T09:46:53Z</time>
      </trkpt>
      <trkpt lat="51.386793460696936" lon="4.408162906765938">
        <ele>-19.09</ele>
        <time>2021-08-08T09:46:54Z</time>
      </trkpt>
      <trkpt lat="51.386810643598437" lon="4.408169444650412">
        <ele>-19.079999999999998</ele>
        <time>2021-08-08T09:46:55Z</time>
      </trkpt>
      <trkpt lat="51.386826569214463" lon="4.408184280619025">
        <ele>-19.079999999999998</ele>
        <time>2021-08-08T09:46:56Z</time>
      </trkpt>
      <trkpt lat="51.386838471516967" lon="4.408205151557922">
        <ele>-19.079999999999998</ele>
        <time>2021-08-08T09:46:57Z</time>
      </trkpt>
      <trkpt lat="51.386846266686916" lon="4.40823582932353">
        <ele>-19.079999999999998</ele>
        <time>2021-08-08T09:46:58Z</time>
      </trkpt>
      <trkpt lat="51.38689186424017" lon="4.408329287543893">
        <ele>-19.100000000000001</ele>
        <time>2021-08-08T09:47:03Z</time>
      </trkpt>
      <trkpt lat="51.386901251971722" lon="4.408344374969602">
        <ele>-19.09</ele>
        <time>2021-08-08T09:47:04Z</time>
      </trkpt>
      <trkpt lat="51.386910555884242" lon="4.408355606719852">
        <ele>-19.100000000000001</ele>
        <time>2021-08-08T09:47:05Z</time>
      </trkpt>
      <trkpt lat="51.386920530349016" lon="4.408371616154909">
        <ele>-19.100000000000001</ele>
        <time>2021-08-08T09:47:06Z</time>
      </trkpt>
      <trkpt lat="51.387058161199093" lon="4.408510671928525">
        <ele>-19.07</ele>
        <time>2021-08-08T09:47:18Z</time>
      </trkpt>
      <trkpt lat="51.387068219482899" lon="4.40852458588779">
        <ele>-19.100000000000001</ele>
        <time>2021-08-08T09:47:19Z</time>
      </trkpt>
      <trkpt lat="51.3870819658041" lon="4.408539170399308">
        <ele>-19.100000000000001</ele>
        <time>2021-08-08T09:47:20Z</time>
      </trkpt>
      <trkpt lat="51.387094706296921" lon="4.408546546474099">
        <ele>-19.09</ele>
        <time>2021-08-08T09:47:21Z</time>
      </trkpt>
      <trkpt lat="51.387103674933314" lon="4.408553084358573">
        <ele>-19.09</ele>
        <time>2021-08-08T09:47:22Z</time>
      </trkpt>
      <trkpt lat="51.387346833944321" lon="4.408806888386607">
        <ele>-19.09</ele>
        <time>2021-08-08T09:47:44Z</time>
      </trkpt>
      <trkpt lat="51.387585634365678" lon="4.409096483141184">
        <ele>-19.190000000000001</ele>
        <time>2021-08-08T09:48:03Z</time>
      </trkpt>
      <trkpt lat="51.387855783104897" lon="4.409545920789242">
        <ele>-19.25</ele>
        <time>2021-08-08T09:48:20Z</time>
      </trkpt>
      <trkpt lat="51.387869445607066" lon="4.409567881375551">
        <ele>-19.239999999999998</ele>
        <time>2021-08-08T09:48:21Z</time>
      </trkpt>
      <trkpt lat="51.388003304600716" lon="4.409715235233307">
        <ele>-19.260000000000002</ele>
        <time>2021-08-08T09:48:33Z</time>
      </trkpt>
      <trkpt lat="51.388128194957972" lon="4.409796036779881">
        <ele>-19.280000000000001</ele>
        <time>2021-08-08T09:48:40Z</time>
      </trkpt>
      <trkpt lat="51.388150323182344" lon="4.409829061478376">
        <ele>-19.280000000000001</ele>
        <time>2021-08-08T09:48:41Z</time>
      </trkpt>
      <trkpt lat="51.388414101675153" lon="4.410110106691718">
        <ele>-19.289999999999999</ele>
        <time>2021-08-08T09:48:49Z</time>
      </trkpt>
      <trkpt lat="51.388530358672142" lon="4.410199373960495">
        <ele>-19.280000000000001</ele>
        <time>2021-08-08T09:48:52Z</time>
      </trkpt>
      <trkpt lat="51.388565311208367" lon="4.410231560468674">
        <ele>-19.289999999999999</ele>
        <time>2021-08-08T09:48:53Z</time>
      </trkpt>
      <trkpt lat="51.388601269572973" lon="4.410255867987871">
        <ele>-19.289999999999999</ele>
        <time>2021-08-08T09:48:54Z</time>
      </trkpt>
      <trkpt lat="51.388635048642755" lon="4.410302471369505">
        <ele>-19.289999999999999</ele>
        <time>2021-08-08T09:48:55Z</time>
      </trkpt>
      <trkpt lat="51.38867293484509" lon="4.410355780273676">
        <ele>-19.289999999999999</ele>
        <time>2021-08-08T09:48:56Z</time>
      </trkpt>
      <trkpt lat="51.388701433315873" lon="4.410407161340118">
        <ele>-19.289999999999999</ele>
        <time>2021-08-08T09:48:57Z</time>
      </trkpt>
      <trkpt lat="51.388720627874136" lon="4.410473629832268">
        <ele>-19.309999999999999</ele>
        <time>2021-08-08T09:48:58Z</time>
      </trkpt>
      <trkpt lat="51.388743761926889" lon="4.410532051697373">
        <ele>-19.32</ele>
        <time>2021-08-08T09:48:59Z</time>
      </trkpt>
      <trkpt lat="51.388782151043415" lon="4.41066917963326">
        <ele>-19.329999999999998</ele>
        <time>2021-08-08T09:49:01Z</time>
      </trkpt>
      <trkpt lat="51.388798747211695" lon="4.410731792449951">
        <ele>-19.34</ele>
        <time>2021-08-08T09:49:02Z</time>
      </trkpt>
      <trkpt lat="51.38881316408515" lon="4.41078987903893">
        <ele>-19.34</ele>
        <time>2021-08-08T09:49:03Z</time>
      </trkpt>
      <trkpt lat="51.388833280652761" lon="4.41083530895412">
        <ele>-19.34</ele>
        <time>2021-08-08T09:49:04Z</time>
      </trkpt>
      <trkpt lat="51.388848619535565" lon="4.410887192934752">
        <ele>-19.359999999999999</ele>
        <time>2021-08-08T09:49:05Z</time>
      </trkpt>
      <trkpt lat="51.389017347246408" lon="4.411235628649592">
        <ele>-19.43</ele>
        <time>2021-08-08T09:49:13Z</time>
      </trkpt>
      <trkpt lat="51.389188589528203" lon="4.411573251709342">
        <ele>-19.48</ele>
        <time>2021-08-08T09:49:19Z</time>
      </trkpt>
      <trkpt lat="51.389216417446733" lon="4.411661764606834">
        <ele>-19.5</ele>
        <time>2021-08-08T09:49:20Z</time>
      </trkpt>
      <trkpt lat="51.389241898432374" lon="4.411741057410836">
        <ele>-19.510000000000002</ele>
        <time>2021-08-08T09:49:21Z</time>
      </trkpt>
      <trkpt lat="51.389266373589635" lon="4.411824038252235">
        <ele>-19.52</ele>
        <time>2021-08-08T09:49:22Z</time>
      </trkpt>
      <trkpt lat="51.389293866232038" lon="4.411901822313666">
        <ele>-19.530000000000001</ele>
        <time>2021-08-08T09:49:23Z</time>
      </trkpt>
      <trkpt lat="51.38931792229414" lon="4.411957394331694">
        <ele>-19.539999999999999</ele>
        <time>2021-08-08T09:49:24Z</time>
      </trkpt>
      <trkpt lat="51.389339547604322" lon="4.412035262212157">
        <ele>-19.559999999999999</ele>
        <time>2021-08-08T09:49:25Z</time>
      </trkpt>
      <trkpt lat="51.389366704970598" lon="4.412082117050886">
        <ele>-19.579999999999998</ele>
        <time>2021-08-08T09:49:26Z</time>
      </trkpt>
      <trkpt lat="51.389388749375939" lon="4.412131905555725">
        <ele>-19.579999999999998</ele>
        <time>2021-08-08T09:49:27Z</time>
      </trkpt>
      <trkpt lat="51.389411380514503" lon="4.4121780898422">
        <ele>-19.600000000000001</ele>
        <time>2021-08-08T09:49:28Z</time>
      </trkpt>
      <trkpt lat="51.389443567022681" lon="4.412221172824502">
        <ele>-19.629999999999999</ele>
        <time>2021-08-08T09:49:29Z</time>
      </trkpt>
      <trkpt lat="51.389480195939541" lon="4.41228998824954">
        <ele>-19.640000000000001</ele>
        <time>2021-08-08T09:49:30Z</time>
      </trkpt>
      <trkpt lat="51.389518501237035" lon="4.412357127293944">
        <ele>-19.649999999999999</ele>
        <time>2021-08-08T09:49:31Z</time>
      </trkpt>
      <trkpt lat="51.389566445723176" lon="4.412418901920319">
        <ele>-19.66</ele>
        <time>2021-08-08T09:49:32Z</time>
      </trkpt>
      <trkpt lat="51.389610031619668" lon="4.41252501681447">
        <ele>-19.66</ele>
        <time>2021-08-08T09:49:33Z</time>
      </trkpt>
      <trkpt lat="51.389730898663402" lon="4.412743868306279">
        <ele>-18.300000000000001</ele>
        <time>2021-08-08T09:49:36Z</time>
      </trkpt>
      <trkpt lat="51.38976844958961" lon="4.412788627669215">
        <ele>-18.34</ele>
        <time>2021-08-08T09:49:37Z</time>
      </trkpt>
      <trkpt lat="51.389924017712474" lon="4.413028601557016">
        <ele>-17.620000000000001</ele>
        <time>2021-08-08T09:49:45Z</time>
      </trkpt>
      <trkpt lat="51.389941284433007" lon="4.413042515516281">
        <ele>-17.629999999999999</ele>
        <time>2021-08-08T09:49:46Z</time>
      </trkpt>
      <trkpt lat="51.389959054067731" lon="4.413041342049837">
        <ele>-17.629999999999999</ele>
        <time>2021-08-08T09:49:47Z</time>
      </trkpt>
      <trkpt lat="51.390251163393259" lon="4.412969676777721">
        <ele>-15.16</ele>
        <time>2021-08-08T09:50:06Z</time>
      </trkpt>
      <trkpt lat="51.390518462285399" lon="4.412889964878559">
        <ele>-12.52</ele>
        <time>2021-08-08T09:50:20Z</time>
      </trkpt>
      <trkpt lat="51.390741420909762" lon="4.412701036781073">
        <ele>-12.43</ele>
        <time>2021-08-08T09:50:34Z</time>
      </trkpt>
      <trkpt lat="51.390813170000911" lon="4.412616128101945">
        <ele>-15.710000000000001</ele>
        <time>2021-08-08T09:50:40Z</time>
      </trkpt>
      <trkpt lat="51.390822725370526" lon="4.41260221414268">
        <ele>-10.880000000000001</ele>
        <time>2021-08-08T09:50:41Z</time>
      </trkpt>
      <trkpt lat="51.390834292396903" lon="4.412587713450193">
        <ele>-10.869999999999999</ele>
        <time>2021-08-08T09:50:42Z</time>
      </trkpt>
      <trkpt lat="51.390859186649323" lon="4.412560053169727">
        <ele>-13.41</ele>
        <time>2021-08-08T09:50:44Z</time>
      </trkpt>
      <trkpt lat="51.391017520800233" lon="4.412395097315311">
        <ele>-13.140000000000001</ele>
        <time>2021-08-08T09:50:57Z</time>
      </trkpt>
      <trkpt lat="51.391210723668337" lon="4.412145232781768">
        <ele>-14.619999999999999</ele>
        <time>2021-08-08T09:51:15Z</time>
      </trkpt>
      <trkpt lat="51.391365537419915" lon="4.41190785728395">
        <ele>-15.1</ele>
        <time>2021-08-08T09:51:31Z</time>
      </trkpt>
      <trkpt lat="51.391538204625249" lon="4.411675930023193">
        <ele>-15.51</ele>
        <time>2021-08-08T09:51:47Z</time>
      </trkpt>
      <trkpt lat="51.391694946214557" lon="4.411501670256257">
        <ele>-15.92</ele>
        <time>2021-08-08T09:52:04Z</time>
      </trkpt>
      <trkpt lat="51.391784632578492" lon="4.411389017477632">
        <ele>-15.67</ele>
        <time>2021-08-08T09:52:16Z</time>
      </trkpt>
      <trkpt lat="51.391921760514379" lon="4.411244848743081">
        <ele>-16.98</ele>
        <time>2021-08-08T09:52:32Z</time>
      </trkpt>
      <trkpt lat="51.392026199027896" lon="4.41112901084125">
        <ele>-17.41</ele>
        <time>2021-08-08T09:52:49Z</time>
      </trkpt>
      <trkpt lat="51.392082693055272" lon="4.411061955615878">
        <ele>-17.289999999999999</ele>
        <time>2021-08-08T09:52:56Z</time>
      </trkpt>
      <trkpt lat="51.392243960872293" lon="4.410837320610881">
        <ele>-17.09</ele>
        <time>2021-08-08T09:53:11Z</time>
      </trkpt>
      <trkpt lat="51.392361978068948" lon="4.410686111077666">
        <ele>-16.899999999999999</ele>
        <time>2021-08-08T09:53:21Z</time>
      </trkpt>
      <trkpt lat="51.392401540651917" lon="4.410638082772493">
        <ele>-14.76</ele>
        <time>2021-08-08T09:53:24Z</time>
      </trkpt>
      <trkpt lat="51.392530705779791" lon="4.410503720864654">
        <ele>-14.640000000000001</ele>
        <time>2021-08-08T09:53:35Z</time>
      </trkpt>
      <trkpt lat="51.392626762390137" lon="4.410414285957813">
        <ele>-14.48</ele>
        <time>2021-08-08T09:53:43Z</time>
      </trkpt>
      <trkpt lat="51.392636066302657" lon="4.410398444160819">
        <ele>-14.470000000000001</ele>
        <time>2021-08-08T09:53:44Z</time>
      </trkpt>
      <trkpt lat="51.392646878957748" lon="4.410382267087698">
        <ele>-14.43</ele>
        <time>2021-08-08T09:53:45Z</time>
      </trkpt>
      <trkpt lat="51.392659703269601" lon="4.410364162176848">
        <ele>-14.42</ele>
        <time>2021-08-08T09:53:46Z</time>
      </trkpt>
      <trkpt lat="51.392671940848231" lon="4.410346811637282">
        <ele>-14.41</ele>
        <time>2021-08-08T09:53:47Z</time>
      </trkpt>
      <trkpt lat="51.39268652535975" lon="4.410326611250639">
        <ele>-14.390000000000001</ele>
        <time>2021-08-08T09:53:48Z</time>
      </trkpt>
      <trkpt lat="51.392756514251232" lon="4.410238768905401">
        <ele>-16.530000000000001</ele>
        <time>2021-08-08T09:53:53Z</time>
      </trkpt>
      <trkpt lat="51.39294452033937" lon="4.410037603229284">
        <ele>-13.83</ele>
        <time>2021-08-08T09:54:06Z</time>
      </trkpt>
      <trkpt lat="51.393145266920328" lon="4.409768879413605">
        <ele>-16.27</ele>
        <time>2021-08-08T09:54:20Z</time>
      </trkpt>
      <trkpt lat="51.393254650756717" lon="4.409642815589905">
        <ele>-20.989999999999998</ele>
        <time>2021-08-08T09:54:28Z</time>
      </trkpt>
      <trkpt lat="51.393268145620823" lon="4.409627225250006">
        <ele>-16.760000000000002</ele>
        <time>2021-08-08T09:54:29Z</time>
      </trkpt>
      <trkpt lat="51.393439304083586" lon="4.409416085109115">
        <ele>-16.440000000000001</ele>
        <time>2021-08-08T09:54:41Z</time>
      </trkpt>
      <trkpt lat="51.393581377342343" lon="4.409230425953865">
        <ele>-16.199999999999999</ele>
        <time>2021-08-08T09:54:53Z</time>
      </trkpt>
      <trkpt lat="51.393593279644847" lon="4.409212740138173">
        <ele>-16.18</ele>
        <time>2021-08-08T09:54:54Z</time>
      </trkpt>
      <trkpt lat="51.393600571900606" lon="4.409196311607957">
        <ele>-16.149999999999999</ele>
        <time>2021-08-08T09:54:55Z</time>
      </trkpt>
      <trkpt lat="51.393611384555697" lon="4.409180218353868">
        <ele>-16.129999999999999</ele>
        <time>2021-08-08T09:54:56Z</time>
      </trkpt>
      <trkpt lat="51.393783548846841" lon="4.408966982737184">
        <ele>-15.83</ele>
        <time>2021-08-08T09:55:10Z</time>
      </trkpt>
      <trkpt lat="51.393980607390404" lon="4.408714938908815">
        <ele>-15.529999999999999</ele>
        <time>2021-08-08T09:55:26Z</time>
      </trkpt>
      <trkpt lat="51.394111281260848" lon="4.408526010811329">
        <ele>-18.539999999999999</ele>
        <time>2021-08-08T09:55:35Z</time>
      </trkpt>
      <trkpt lat="51.394126955419779" lon="4.408507738262415">
        <ele>-13.800000000000001</ele>
        <time>2021-08-08T09:55:36Z</time>
      </trkpt>
      <trkpt lat="51.394142294302583" lon="4.40848695114255">
        <ele>-13.789999999999999</ele>
        <time>2021-08-08T09:55:37Z</time>
      </trkpt>
      <trkpt lat="51.394237093627453" lon="4.408379746600986">
        <ele>-17.109999999999999</ele>
        <time>2021-08-08T09:55:43Z</time>
      </trkpt>
      <trkpt lat="51.394278416410089" lon="4.408331131562591">
        <ele>-14.57</ele>
        <time>2021-08-08T09:55:46Z</time>
      </trkpt>
      <trkpt lat="51.394479917362332" lon="4.408122589811683">
        <ele>-14.9</ele>
        <time>2021-08-08T09:55:59Z</time>
      </trkpt>
      <trkpt lat="51.394635150209069" lon="4.407938858494163">
        <ele>-15.44</ele>
        <time>2021-08-08T09:56:11Z</time>
      </trkpt>
      <trkpt lat="51.394776133820415" lon="4.407770549878478">
        <ele>-15.210000000000001</ele>
        <time>2021-08-08T09:56:21Z</time>
      </trkpt>
      <trkpt lat="51.394967157393694" lon="4.407545914873481">
        <ele>-14.93</ele>
        <time>2021-08-08T09:56:33Z</time>
      </trkpt>
      <trkpt lat="51.395117612555623" lon="4.407353298738599">
        <ele>-14.66</ele>
        <time>2021-08-08T09:56:46Z</time>
      </trkpt>
      <trkpt lat="51.395146949216723" lon="4.407309796661139">
        <ele>-14.619999999999999</ele>
        <time>2021-08-08T09:56:49Z</time>
      </trkpt>
      <trkpt lat="51.395154995843768" lon="4.407294793054462">
        <ele>-14.6</ele>
        <time>2021-08-08T09:56:50Z</time>
      </trkpt>
      <trkpt lat="51.395167903974652" lon="4.407281633466482">
        <ele>-14.59</ele>
        <time>2021-08-08T09:56:51Z</time>
      </trkpt>
      <trkpt lat="51.395316096022725" lon="4.407129418104887">
        <ele>-14.35</ele>
        <time>2021-08-08T09:57:04Z</time>
      </trkpt>
      <trkpt lat="51.395539306104183" lon="4.406824903562665">
        <ele>-14.140000000000001</ele>
        <time>2021-08-08T09:57:15Z</time>
      </trkpt>
      <trkpt lat="51.395573001354933" lon="4.406779641285539">
        <ele>-14.130000000000001</ele>
        <time>2021-08-08T09:57:16Z</time>
      </trkpt>
      <trkpt lat="51.395810041576624" lon="4.406449729576707">
        <ele>-14.02</ele>
        <time>2021-08-08T09:57:23Z</time>
      </trkpt>
      <trkpt lat="51.395850358530879" lon="4.406397342681885">
        <ele>-14</ele>
        <time>2021-08-08T09:57:24Z</time>
      </trkpt>
      <trkpt lat="51.395891094580293" lon="4.406341519206762">
        <ele>-13.99</ele>
        <time>2021-08-08T09:57:25Z</time>
      </trkpt>
      <trkpt lat="51.395930321887136" lon="4.4062808342278">
        <ele>-13.98</ele>
        <time>2021-08-08T09:57:26Z</time>
      </trkpt>
      <trkpt lat="51.395971309393644" lon="4.406219813972712">
        <ele>-13.960000000000001</ele>
        <time>2021-08-08T09:57:27Z</time>
      </trkpt>
      <trkpt lat="51.39600919559598" lon="4.406161895021796">
        <ele>-13.949999999999999</ele>
        <time>2021-08-08T09:57:28Z</time>
      </trkpt>
      <trkpt lat="51.396043729037046" lon="4.406109927222133">
        <ele>-13.92</ele>
        <time>2021-08-08T09:57:29Z</time>
      </trkpt>
      <trkpt lat="51.396086812019348" lon="4.406060976907611">
        <ele>-13.91</ele>
        <time>2021-08-08T09:57:30Z</time>
      </trkpt>
      <trkpt lat="51.396450586616993" lon="4.405634002760053">
        <ele>-13.77</ele>
        <time>2021-08-08T09:57:38Z</time>
      </trkpt>
      <trkpt lat="51.396779576316476" lon="4.405268467962742">
        <ele>-13.6</ele>
        <time>2021-08-08T09:57:46Z</time>
      </trkpt>
      <trkpt lat="51.396856689825654" lon="4.405174171552062">
        <ele>-13.58</ele>
        <time>2021-08-08T09:57:48Z</time>
      </trkpt>
      <trkpt lat="51.396898934617639" lon="4.405121700838208">
        <ele>-13.56</ele>
        <time>2021-08-08T09:57:49Z</time>
      </trkpt>
      <trkpt lat="51.397085096687078" lon="4.404897652566433">
        <ele>-13.5</ele>
        <time>2021-08-08T09:57:53Z</time>
      </trkpt>
      <trkpt lat="51.397302020341158" lon="4.404644016176462">
        <ele>-13.4</ele>
        <time>2021-08-08T09:57:58Z</time>
      </trkpt>
      <trkpt lat="51.397329680621624" lon="4.404604872688651">
        <ele>-13.390000000000001</ele>
        <time>2021-08-08T09:57:59Z</time>
      </trkpt>
      <trkpt lat="51.397366812452674" lon="4.404561286792159">
        <ele>-13.380000000000001</ele>
        <time>2021-08-08T09:58:00Z</time>
      </trkpt>
      <trkpt lat="51.397399753332138" lon="4.404513007029891">
        <ele>-13.369999999999999</ele>
        <time>2021-08-08T09:58:01Z</time>
      </trkpt>
      <trkpt lat="51.397430850192904" lon="4.404465481638908">
        <ele>-13.359999999999999</ele>
        <time>2021-08-08T09:58:02Z</time>
      </trkpt>
      <trkpt lat="51.397530594840646" lon="4.404323911294341">
        <ele>-13.31</ele>
        <time>2021-08-08T09:58:05Z</time>
      </trkpt>
      <trkpt lat="51.397560182958841" lon="4.404280157759786">
        <ele>-10.76</ele>
        <time>2021-08-08T09:58:06Z</time>
      </trkpt>
      <trkpt lat="51.397579042240977" lon="4.404242858290672">
        <ele>-10.74</ele>
        <time>2021-08-08T09:58:07Z</time>
      </trkpt>
      <trkpt lat="51.397607205435634" lon="4.404197931289673">
        <ele>-10.720000000000001</ele>
        <time>2021-08-08T09:58:08Z</time>
      </trkpt>
      <trkpt lat="51.397635536268353" lon="4.404153507202864">
        <ele>-10.699999999999999</ele>
        <time>2021-08-08T09:58:09Z</time>
      </trkpt>
      <trkpt lat="51.397911049425602" lon="4.403825188055635">
        <ele>-10.56</ele>
        <time>2021-08-08T09:58:20Z</time>
      </trkpt>
      <trkpt lat="51.398130487650633" lon="4.403577083721757">
        <ele>-10.44</ele>
        <time>2021-08-08T09:58:30Z</time>
      </trkpt>
      <trkpt lat="51.398305250331759" lon="4.403394861146808">
        <ele>-10.32</ele>
        <time>2021-08-08T09:58:41Z</time>
      </trkpt>
      <trkpt lat="51.398542793467641" lon="4.403188666328788">
        <ele>-10.15</ele>
        <time>2021-08-08T09:58:55Z</time>
      </trkpt>
      <trkpt lat="51.398687129840255" lon="4.402988255023956">
        <ele>-12.24</ele>
        <time>2021-08-08T09:59:08Z</time>
      </trkpt>
      <trkpt lat="51.398907070979476" lon="4.402743419632316">
        <ele>-12.050000000000001</ele>
        <time>2021-08-08T09:59:22Z</time>
      </trkpt>
      <trkpt lat="51.398985190317035" lon="4.402660690248013">
        <ele>-11.960000000000001</ele>
        <time>2021-08-08T09:59:29Z</time>
      </trkpt>
      <trkpt lat="51.399162048473954" lon="4.402445442974567">
        <ele>-11.75</ele>
        <time>2021-08-08T09:59:46Z</time>
      </trkpt>
      <trkpt lat="51.399210914969444" lon="4.402390122413635">
        <ele>-11.699999999999999</ele>
        <time>2021-08-08T09:59:50Z</time>
      </trkpt>
      <trkpt lat="51.399374278262258" lon="4.402144532650709">
        <ele>-8.720000000000001</ele>
        <time>2021-08-08T10:00:05Z</time>
      </trkpt>
      <trkpt lat="51.399422558024526" lon="4.402102371677756">
        <ele>-11.01</ele>
        <time>2021-08-08T10:00:08Z</time>
      </trkpt>
      <trkpt lat="51.399565972387791" lon="4.401924088597298">
        <ele>-10.890000000000001</ele>
        <time>2021-08-08T10:00:18Z</time>
      </trkpt>
      <trkpt lat="51.399620957672596" lon="4.401847897097468">
        <ele>-10.85</ele>
        <time>2021-08-08T10:00:23Z</time>
      </trkpt>
      <trkpt lat="51.399626741185784" lon="4.401832222938538">
        <ele>-10.83</ele>
        <time>2021-08-08T10:00:24Z</time>
      </trkpt>
      <trkpt lat="51.399636212736368" lon="4.401814956218004">
        <ele>-10.82</ele>
        <time>2021-08-08T10:00:25Z</time>
      </trkpt>
      <trkpt lat="51.399653563275933" lon="4.401794336736202">
        <ele>-14.609999999999999</ele>
        <time>2021-08-08T10:00:27Z</time>
      </trkpt>
      <trkpt lat="51.399663453921676" lon="4.401781260967255">
        <ele>-9.560000000000001</ele>
        <time>2021-08-08T10:00:28Z</time>
      </trkpt>
      <trkpt lat="51.399671835824847" lon="4.401765335351229">
        <ele>-9.550000000000001</ele>
        <time>2021-08-08T10:00:29Z</time>
      </trkpt>
      <trkpt lat="51.399853471666574" lon="4.401513962075114">
        <ele>-9.42</ele>
        <time>2021-08-08T10:00:41Z</time>
      </trkpt>
      <trkpt lat="51.400032257661223" lon="4.401269964873791">
        <ele>-9.279999999999999</ele>
        <time>2021-08-08T10:00:54Z</time>
      </trkpt>
      <trkpt lat="51.400169553235173" lon="4.40115069039166">
        <ele>-9.16</ele>
        <time>2021-08-08T10:01:03Z</time>
      </trkpt>
      <trkpt lat="51.400230992585421" lon="4.401062177494168">
        <ele>-9.07</ele>
        <time>2021-08-08T10:01:09Z</time>
      </trkpt>
      <trkpt lat="51.400245828554034" lon="4.401043485850096">
        <ele>-9.060000000000001</ele>
        <time>2021-08-08T10:01:10Z</time>
      </trkpt>
      <trkpt lat="51.400258904322982" lon="4.401024039834738">
        <ele>-9.039999999999999</ele>
        <time>2021-08-08T10:01:11Z</time>
      </trkpt>
      <trkpt lat="51.400272902101278" lon="4.401008449494839">
        <ele>-9.039999999999999</ele>
        <time>2021-08-08T10:01:12Z</time>
      </trkpt>
      <trkpt lat="51.400286229327321" lon="4.400992691516876">
        <ele>-9.01</ele>
        <time>2021-08-08T10:01:13Z</time>
      </trkpt>
      <trkpt lat="51.400404749438167" lon="4.400865202769637">
        <ele>-8.880000000000001</ele>
        <time>2021-08-08T10:01:21Z</time>
      </trkpt>
      <trkpt lat="51.400542547926307" lon="4.400739390403032">
        <ele>-8.66</ele>
        <time>2021-08-08T10:01:35Z</time>
      </trkpt>
      <trkpt lat="51.400725860148668" lon="4.400467397645116">
        <ele>-8.42</ele>
        <time>2021-08-08T10:01:54Z</time>
      </trkpt>
      <trkpt lat="51.400931803509593" lon="4.400170594453812">
        <ele>-8.23</ele>
        <time>2021-08-08T10:02:13Z</time>
      </trkpt>
      <trkpt lat="51.401141015812755" lon="4.399952664971352">
        <ele>-8.119999999999999</ele>
        <time>2021-08-08T10:02:28Z</time>
      </trkpt>
      <trkpt lat="51.401165490970016" lon="4.399907821789384">
        <ele>-8.1</ele>
        <time>2021-08-08T10:02:30Z</time>
      </trkpt>
      <trkpt lat="51.401211088523269" lon="4.399845628067851">
        <ele>-8.08</ele>
        <time>2021-08-08T10:02:33Z</time>
      </trkpt>
      <trkpt lat="51.401224583387375" lon="4.399831630289555">
        <ele>-8.08</ele>
        <time>2021-08-08T10:02:34Z</time>
      </trkpt>
      <trkpt lat="51.401298427954316" lon="4.399733897298574">
        <ele>-7.16</ele>
        <time>2021-08-08T10:02:42Z</time>
      </trkpt>
      <trkpt lat="51.401362968608737" lon="4.399644210934639">
        <ele>-7.13</ele>
        <time>2021-08-08T10:02:48Z</time>
      </trkpt>
      <trkpt lat="51.401377385482192" lon="4.399617640301585">
        <ele>-7.12</ele>
        <time>2021-08-08T10:02:49Z</time>
      </trkpt>
      <trkpt lat="51.401395909488201" lon="4.399596098810434">
        <ele>-7.11</ele>
        <time>2021-08-08T10:02:50Z</time>
      </trkpt>
      <trkpt lat="51.40149406157434" lon="4.399482775479555">
        <ele>-7.07</ele>
        <time>2021-08-08T10:03:01Z</time>
      </trkpt>
      <trkpt lat="51.401667483150959" lon="4.399225618690252">
        <ele>-7</ele>
        <time>2021-08-08T10:03:19Z</time>
      </trkpt>
      <trkpt lat="51.401850795373321" lon="4.398962762206793">
        <ele>-6.11</ele>
        <time>2021-08-08T10:03:37Z</time>
      </trkpt>
      <trkpt lat="51.402043998241425" lon="4.398752627894282">
        <ele>-5.36</ele>
        <time>2021-08-08T10:03:56Z</time>
      </trkpt>
      <trkpt lat="51.402275506407022" lon="4.398456327617168">
        <ele>-5.42</ele>
        <time>2021-08-08T10:04:15Z</time>
      </trkpt>
      <trkpt lat="51.402528053149581" lon="4.398157512769103">
        <ele>-5.5</ele>
        <time>2021-08-08T10:04:36Z</time>
      </trkpt>
      <trkpt lat="51.402621092274785" lon="4.398032790049911">
        <ele>-5.55</ele>
        <time>2021-08-08T10:04:54Z</time>
      </trkpt>
      <trkpt lat="51.40267314389348" lon="4.397939248010516">
        <ele>-5.63</ele>
        <time>2021-08-08T10:05:17Z</time>
      </trkpt>
      <trkpt lat="51.402865005657077" lon="4.397747470065951">
        <ele>-5.65</ele>
        <time>2021-08-08T10:05:35Z</time>
      </trkpt>
      <trkpt lat="51.403038091957569" lon="4.397567510604858">
        <ele>-5.66</ele>
        <time>2021-08-08T10:05:47Z</time>
      </trkpt>
      <trkpt lat="51.403175722807646" lon="4.397389898076654">
        <ele>-5.67</ele>
        <time>2021-08-08T10:05:57Z</time>
      </trkpt>
      <trkpt lat="51.403196174651384" lon="4.397363243624568">
        <ele>-5.66</ele>
        <time>2021-08-08T10:05:58Z</time>
      </trkpt>
      <trkpt lat="51.40321109443903" lon="4.397340025752783">
        <ele>-5.66</ele>
        <time>2021-08-08T10:05:59Z</time>
      </trkpt>
      <trkpt lat="51.40323406085372" lon="4.39730666577816">
        <ele>-7.99</ele>
        <time>2021-08-08T10:06:01Z</time>
      </trkpt>
      <trkpt lat="51.403441932052374" lon="4.39704473130405">
        <ele>-7.99</ele>
        <time>2021-08-08T10:06:18Z</time>
      </trkpt>
      <trkpt lat="51.403626585379243" lon="4.396788328886032">
        <ele>-8.039999999999999</ele>
        <time>2021-08-08T10:06:36Z</time>
      </trkpt>
      <trkpt lat="51.403800258412957" lon="4.396544750779867">
        <ele>-8.109999999999999</ele>
        <time>2021-08-08T10:06:51Z</time>
      </trkpt>
      <trkpt lat="51.40397971495986" lon="4.396264459937811">
        <ele>-9.029999999999999</ele>
        <time>2021-08-08T10:07:11Z</time>
      </trkpt>
      <trkpt lat="51.404232010245323" lon="4.395952904596925">
        <ele>-9.16</ele>
        <time>2021-08-08T10:07:29Z</time>
      </trkpt>
      <trkpt lat="51.404453879222274" lon="4.395741764456034">
        <ele>-10.18</ele>
        <time>2021-08-08T10:07:48Z</time>
      </trkpt>
      <trkpt lat="51.404638616368175" lon="4.395579909905791">
        <ele>-10.31</ele>
        <time>2021-08-08T10:08:05Z</time>
      </trkpt>
      <trkpt lat="51.404831483960152" lon="4.395292326807976">
        <ele>-12.01</ele>
        <time>2021-08-08T10:08:25Z</time>
      </trkpt>
      <trkpt lat="51.405007336288691" lon="4.394963169470429">
        <ele>-12.220000000000001</ele>
        <time>2021-08-08T10:08:45Z</time>
      </trkpt>
      <trkpt lat="51.405225852504373" lon="4.394738031551242">
        <ele>-13.550000000000001</ele>
        <time>2021-08-08T10:09:00Z</time>
      </trkpt>
      <trkpt lat="51.405478063970804" lon="4.394483808428049">
        <ele>-13.75</ele>
        <time>2021-08-08T10:09:18Z</time>
      </trkpt>
      <trkpt lat="51.405649222433567" lon="4.394313404336572">
        <ele>-11.16</ele>
        <time>2021-08-08T10:09:29Z</time>
      </trkpt>
      <trkpt lat="51.405819207429886" lon="4.394119866192341">
        <ele>-11.32</ele>
        <time>2021-08-08T10:09:41Z</time>
      </trkpt>
      <trkpt lat="51.406016601249576" lon="4.393918449059129">
        <ele>-11.460000000000001</ele>
        <time>2021-08-08T10:09:54Z</time>
      </trkpt>
      <trkpt lat="51.406270572915673" lon="4.393575880676508">
        <ele>-11.699999999999999</ele>
        <time>2021-08-08T10:10:15Z</time>
      </trkpt>
      <trkpt lat="51.406349278986454" lon="4.393452918156982">
        <ele>-11.779999999999999</ele>
        <time>2021-08-08T10:10:23Z</time>
      </trkpt>
      <trkpt lat="51.406364953145385" lon="4.393433723598719">
        <ele>-11.800000000000001</ele>
        <time>2021-08-08T10:10:24Z</time>
      </trkpt>
      <trkpt lat="51.406378615647554" lon="4.393417714163661">
        <ele>-11.81</ele>
        <time>2021-08-08T10:10:25Z</time>
      </trkpt>
      <trkpt lat="51.406555725261569" lon="4.393268516287208">
        <ele>-11.9</ele>
        <time>2021-08-08T10:10:36Z</time>
      </trkpt>
      <trkpt lat="51.406772648915648" lon="4.393070619553328">
        <ele>-12.050000000000001</ele>
        <time>2021-08-08T10:10:49Z</time>
      </trkpt>
      <trkpt lat="51.406827634200454" lon="4.393030302599073">
        <ele>-12.039999999999999</ele>
        <time>2021-08-08T10:10:52Z</time>
      </trkpt>
      <trkpt lat="51.406842889264226" lon="4.393005492165685">
        <ele>-12.06</ele>
        <time>2021-08-08T10:10:53Z</time>
      </trkpt>
      <trkpt lat="51.406854456290603" lon="4.392984453588724">
        <ele>-12.06</ele>
        <time>2021-08-08T10:10:54Z</time>
      </trkpt>
      <trkpt lat="51.406877171248198" lon="4.39296081662178">
        <ele>-12.06</ele>
        <time>2021-08-08T10:10:55Z</time>
      </trkpt>
      <trkpt lat="51.406920421868563" lon="4.39293147996068">
        <ele>-12.09</ele>
        <time>2021-08-08T10:10:56Z</time>
      </trkpt>
      <trkpt lat="51.406946741044521" lon="4.392915721982718">
        <ele>-12.09</ele>
        <time>2021-08-08T10:10:57Z</time>
      </trkpt>
      <trkpt lat="51.407022764906287" lon="4.392790999263525">
        <ele>-12.23</ele>
        <time>2021-08-08T10:11:12Z</time>
      </trkpt>
      <trkpt lat="51.407046988606453" lon="4.392736600711942">
        <ele>-12.210000000000001</ele>
        <time>2021-08-08T10:11:17Z</time>
      </trkpt>
      <trkpt lat="51.407103231176734" lon="4.392644902691245">
        <ele>-12.26</ele>
        <time>2021-08-08T10:11:24Z</time>
      </trkpt>
      <trkpt lat="51.407189900055528" lon="4.392485395073891">
        <ele>-12.43</ele>
        <time>2021-08-08T10:11:35Z</time>
      </trkpt>
      <trkpt lat="51.40744948759675" lon="4.392142994329333">
        <ele>-12.6</ele>
        <time>2021-08-08T10:11:55Z</time>
      </trkpt>
      <trkpt lat="51.407702201977372" lon="4.391891956329346">
        <ele>-12.73</ele>
        <time>2021-08-08T10:12:12Z</time>
      </trkpt>
      <trkpt lat="51.407863385975361" lon="4.39170353114605">
        <ele>-12.81</ele>
        <time>2021-08-08T10:12:26Z</time>
      </trkpt>
      <trkpt lat="51.407947121188045" lon="4.391628261655569">
        <ele>-12.82</ele>
        <time>2021-08-08T10:12:31Z</time>
      </trkpt>
      <trkpt lat="51.407958520576358" lon="4.391611749306321">
        <ele>-12.85</ele>
        <time>2021-08-08T10:12:32Z</time>
      </trkpt>
      <trkpt lat="51.407979223877192" lon="4.391573360189796">
        <ele>-12.84</ele>
        <time>2021-08-08T10:12:34Z</time>
      </trkpt>
      <trkpt lat="51.407996909692883" lon="4.391544777899981">
        <ele>-12.859999999999999</ele>
        <time>2021-08-08T10:12:35Z</time>
      </trkpt>
      <trkpt lat="51.408008811995387" lon="4.391524912789464">
        <ele>-12.85</ele>
        <time>2021-08-08T10:12:36Z</time>
      </trkpt>
      <trkpt lat="51.408021133393049" lon="4.391505466774106">
        <ele>-12.85</ele>
        <time>2021-08-08T10:12:37Z</time>
      </trkpt>
      <trkpt lat="51.408043680712581" lon="4.391460539773107">
        <ele>-15.960000000000001</ele>
        <time>2021-08-08T10:12:40Z</time>
      </trkpt>
      <trkpt lat="51.408051392063498" lon="4.391447883099318">
        <ele>-15.949999999999999</ele>
        <time>2021-08-08T10:12:41Z</time>
      </trkpt>
      <trkpt lat="51.408257251605392" lon="4.390924852341414">
        <ele>-15.890000000000001</ele>
        <time>2021-08-08T10:13:03Z</time>
      </trkpt>
      <trkpt lat="51.408297820016742" lon="4.390840362757444">
        <ele>-15.9</ele>
        <time>2021-08-08T10:13:06Z</time>
      </trkpt>
      <trkpt lat="51.408317852765322" lon="4.390778252854943">
        <ele>-15.890000000000001</ele>
        <time>2021-08-08T10:13:08Z</time>
      </trkpt>
      <trkpt lat="51.408332353457808" lon="4.390743719413877">
        <ele>-15.92</ele>
        <time>2021-08-08T10:13:09Z</time>
      </trkpt>
      <trkpt lat="51.408353308215737" lon="4.390702396631241">
        <ele>-15.93</ele>
        <time>2021-08-08T10:13:10Z</time>
      </trkpt>
      <trkpt lat="51.408371748402715" lon="4.39066861756146">
        <ele>-15.91</ele>
        <time>2021-08-08T10:13:11Z</time>
      </trkpt>
      <trkpt lat="51.408422626554966" lon="4.390425458550453">
        <ele>-16.02</ele>
        <time>2021-08-08T10:13:21Z</time>
      </trkpt>
      <trkpt lat="51.40846336260438" lon="4.39025136642158">
        <ele>-16.140000000000001</ele>
        <time>2021-08-08T10:13:28Z</time>
      </trkpt>
      <trkpt lat="51.408465877175331" lon="4.390227310359478">
        <ele>-16.120000000000001</ele>
        <time>2021-08-08T10:13:29Z</time>
      </trkpt>
      <trkpt lat="51.408496638759971" lon="4.390102084726095">
        <ele>-14.869999999999999</ele>
        <time>2021-08-08T10:13:34Z</time>
      </trkpt>
      <trkpt lat="51.408571153879166" lon="4.389662118628621">
        <ele>-15.15</ele>
        <time>2021-08-08T10:13:52Z</time>
      </trkpt>
      <trkpt lat="51.408619517460465" lon="4.389230785891414">
        <ele>-15.449999999999999</ele>
        <time>2021-08-08T10:14:11Z</time>
      </trkpt>
      <trkpt lat="51.408709790557623" lon="4.38882065936923">
        <ele>-15.85</ele>
        <time>2021-08-08T10:14:31Z</time>
      </trkpt>
      <trkpt lat="51.408816827461123" lon="4.388351188972592">
        <ele>-14.57</ele>
        <time>2021-08-08T10:14:49Z</time>
      </trkpt>
      <trkpt lat="51.40885722823441" lon="4.388049691915512">
        <ele>-15.039999999999999</ele>
        <time>2021-08-08T10:15:03Z</time>
      </trkpt>
      <trkpt lat="51.408932581543922" lon="4.387624142691493">
        <ele>-15.449999999999999</ele>
        <time>2021-08-08T10:15:22Z</time>
      </trkpt>
      <trkpt lat="51.408933168277144" lon="4.387570330873132">
        <ele>-15.529999999999999</ele>
        <time>2021-08-08T10:15:25Z</time>
      </trkpt>
      <trkpt lat="51.408941969275475" lon="4.387513333931565">
        <ele>-15.539999999999999</ele>
        <time>2021-08-08T10:15:29Z</time>
      </trkpt>
      <trkpt lat="51.409082869067788" lon="4.386874129995704">
        <ele>-15.34</ele>
        <time>2021-08-08T10:16:14Z</time>
      </trkpt>
      <trkpt lat="51.409255200996995" lon="4.386763740330935">
        <ele>-15.470000000000001</ele>
        <time>2021-08-08T10:16:31Z</time>
      </trkpt>
      <trkpt lat="51.409507999196649" lon="4.386626612395048">
        <ele>-15.539999999999999</ele>
        <time>2021-08-08T10:16:51Z</time>
      </trkpt>
      <trkpt lat="51.410055169835687" lon="4.386526113376021">
        <ele>-15.630000000000001</ele>
        <time>2021-08-08T10:17:22Z</time>
      </trkpt>
      <trkpt lat="51.410308387130499" lon="4.386480515822768">
        <ele>-15.68</ele>
        <time>2021-08-08T10:17:40Z</time>
      </trkpt>
      <trkpt lat="51.410509217530489" lon="4.386464506387711">
        <ele>-15.68</ele>
        <time>2021-08-08T10:17:54Z</time>
      </trkpt>
      <trkpt lat="51.410559341311455" lon="4.386473558843136">
        <ele>-12.91</ele>
        <time>2021-08-08T10:18:00Z</time>
      </trkpt>
      <trkpt lat="51.410575686022639" lon="4.386477246880531">
        <ele>-15.58</ele>
        <time>2021-08-08T10:18:02Z</time>
      </trkpt>
      <trkpt lat="51.41080928966403" lon="4.38642343506217">
        <ele>-15.6</ele>
        <time>2021-08-08T10:18:14Z</time>
      </trkpt>
      <trkpt lat="51.41144840978086" lon="4.386366689577699">
        <ele>-15.41</ele>
        <time>2021-08-08T10:18:49Z</time>
      </trkpt>
      <trkpt lat="51.411469364538789" lon="4.386377837508917">
        <ele>-15.4</ele>
        <time>2021-08-08T10:18:50Z</time>
      </trkpt>
      <trkpt lat="51.411619316786528" lon="4.386539105325937">
        <ele>-15.33</ele>
        <time>2021-08-08T10:19:00Z</time>
      </trkpt>
      <trkpt lat="51.411633314564824" lon="4.386552181094885">
        <ele>-15.32</ele>
        <time>2021-08-08T10:19:01Z</time>
      </trkpt>
      <trkpt lat="51.41168343834579" lon="4.386573890224099">
        <ele>-15.300000000000001</ele>
        <time>2021-08-08T10:19:04Z</time>
      </trkpt>
      <trkpt lat="51.41169760376215" lon="4.38658470287919">
        <ele>-15.279999999999999</ele>
        <time>2021-08-08T10:19:05Z</time>
      </trkpt>
      <trkpt lat="51.411709422245622" lon="4.386603059247136">
        <ele>-15.27</ele>
        <time>2021-08-08T10:19:06Z</time>
      </trkpt>
      <trkpt lat="51.411724090576172" lon="4.386614710092545">
        <ele>-15.27</ele>
        <time>2021-08-08T10:19:07Z</time>
      </trkpt>
      <trkpt lat="51.4117381721735" lon="4.386625271290541">
        <ele>-15.25</ele>
        <time>2021-08-08T10:19:08Z</time>
      </trkpt>
      <trkpt lat="51.411749571561813" lon="4.386634910479188">
        <ele>-15.25</ele>
        <time>2021-08-08T10:19:09Z</time>
      </trkpt>
      <trkpt lat="51.4117640722543" lon="4.386636335402727">
        <ele>-15.24</ele>
        <time>2021-08-08T10:19:10Z</time>
      </trkpt>
      <trkpt lat="51.411774549633265" lon="4.386645471677184">
        <ele>-15.23</ele>
        <time>2021-08-08T10:19:11Z</time>
      </trkpt>
      <trkpt lat="51.411780919879675" lon="4.386671455577016">
        <ele>-15.220000000000001</ele>
        <time>2021-08-08T10:19:12Z</time>
      </trkpt>
      <trkpt lat="51.411797432228923" lon="4.386689560487866">
        <ele>-15.210000000000001</ele>
        <time>2021-08-08T10:19:13Z</time>
      </trkpt>
      <trkpt lat="51.411811430007219" lon="4.386710096150637">
        <ele>-15.210000000000001</ele>
        <time>2021-08-08T10:19:14Z</time>
      </trkpt>
      <trkpt lat="51.411821572110057" lon="4.386737756431103">
        <ele>-15.199999999999999</ele>
        <time>2021-08-08T10:19:15Z</time>
      </trkpt>
      <trkpt lat="51.411831714212894" lon="4.386767596006393">
        <ele>-15.18</ele>
        <time>2021-08-08T10:19:16Z</time>
      </trkpt>
      <trkpt lat="51.412008237093687" lon="4.38691595569253">
        <ele>-15.01</ele>
        <time>2021-08-08T10:19:33Z</time>
      </trkpt>
      <trkpt lat="51.412274111062288" lon="4.38738115131855">
        <ele>-14.74</ele>
        <time>2021-08-08T10:20:01Z</time>
      </trkpt>
      <trkpt lat="51.412286767736077" lon="4.38738944940269">
        <ele>-14.720000000000001</ele>
        <time>2021-08-08T10:20:02Z</time>
      </trkpt>
      <trkpt lat="51.4122942276299" lon="4.387405207380652">
        <ele>-14.720000000000001</ele>
        <time>2021-08-08T10:20:03Z</time>
      </trkpt>
      <trkpt lat="51.412321133539081" lon="4.387448038905859">
        <ele>-14.699999999999999</ele>
        <time>2021-08-08T10:20:06Z</time>
      </trkpt>
      <trkpt lat="51.412331108003855" lon="4.387459186837077">
        <ele>-14.699999999999999</ele>
        <time>2021-08-08T10:20:07Z</time>
      </trkpt>
      <trkpt lat="51.412356421351433" lon="4.387524062767625">
        <ele>-14.67</ele>
        <time>2021-08-08T10:20:10Z</time>
      </trkpt>
      <trkpt lat="51.41237142495811" lon="4.387620957568288">
        <ele>-14.640000000000001</ele>
        <time>2021-08-08T10:20:13Z</time>
      </trkpt>
      <trkpt lat="51.412387266755104" lon="4.387692706659436">
        <ele>-14.630000000000001</ele>
        <time>2021-08-08T10:20:15Z</time>
      </trkpt>
      <trkpt lat="51.412406796589494" lon="4.387721875682473">
        <ele>-14.619999999999999</ele>
        <time>2021-08-08T10:20:17Z</time>
      </trkpt>
      <trkpt lat="51.412526909261942" lon="4.38790837302804">
        <ele>-14.52</ele>
        <time>2021-08-08T10:20:29Z</time>
      </trkpt>
      <trkpt lat="51.41253805719316" lon="4.387932764366269">
        <ele>-14.529999999999999</ele>
        <time>2021-08-08T10:20:30Z</time>
      </trkpt>
      <trkpt lat="51.412543505430222" lon="4.387969393283129">
        <ele>-14.51</ele>
        <time>2021-08-08T10:20:31Z</time>
      </trkpt>
      <trkpt lat="51.41254736110568" lon="4.38800954259932">
        <ele>-14.5</ele>
        <time>2021-08-08T10:20:32Z</time>
      </trkpt>
      <trkpt lat="51.412548283115029" lon="4.38804960809648">
        <ele>-14.5</ele>
        <time>2021-08-08T10:20:33Z</time>
      </trkpt>
      <trkpt lat="51.412555323913693" lon="4.388070479035378">
        <ele>-14.48</ele>
        <time>2021-08-08T10:20:34Z</time>
      </trkpt>
      <trkpt lat="51.412564879283309" lon="4.388084560632706">
        <ele>-14.460000000000001</ele>
        <time>2021-08-08T10:20:35Z</time>
      </trkpt>
      <trkpt lat="51.412572339177132" lon="4.388101072981954">
        <ele>-14.460000000000001</ele>
        <time>2021-08-08T10:20:36Z</time>
      </trkpt>
      <trkpt lat="51.41258105635643" lon="4.388115322217345">
        <ele>-14.449999999999999</ele>
        <time>2021-08-08T10:20:37Z</time>
      </trkpt>
      <trkpt lat="51.412593042477965" lon="4.3881228659302">
        <ele>-14.44</ele>
        <time>2021-08-08T10:20:38Z</time>
      </trkpt>
      <trkpt lat="51.41260745935142" lon="4.388128230348229">
        <ele>-14.44</ele>
        <time>2021-08-08T10:20:39Z</time>
      </trkpt>
      <trkpt lat="51.412618858739734" lon="4.388136947527528">
        <ele>-14.43</ele>
        <time>2021-08-08T10:20:40Z</time>
      </trkpt>
      <trkpt lat="51.412701420485973" lon="4.388252031058073">
        <ele>-14.42</ele>
        <time>2021-08-08T10:20:48Z</time>
      </trkpt>
      <trkpt lat="51.412795465439558" lon="4.388447664678097">
        <ele>-14.380000000000001</ele>
        <time>2021-08-08T10:20:58Z</time>
      </trkpt>
      <trkpt lat="51.412792783230543" lon="4.388672718778253">
        <ele>-14.300000000000001</ele>
        <time>2021-08-08T10:21:12Z</time>
      </trkpt>
      <trkpt lat="51.412813570350409" lon="4.388635167852044">
        <ele>-14.220000000000001</ele>
        <time>2021-08-08T10:21:23Z</time>
      </trkpt>
      <trkpt lat="51.41288791783154" lon="4.388655619695783">
        <ele>-14.08</ele>
        <time>2021-08-08T10:21:46Z</time>
      </trkpt>
      <trkpt lat="51.412919349968433" lon="4.388611614704132">
        <ele>-13.960000000000001</ele>
        <time>2021-08-08T10:22:01Z</time>
      </trkpt>
      <trkpt lat="51.413126969709992" lon="4.388533746823669">
        <ele>-11.449999999999999</ele>
        <time>2021-08-08T10:22:18Z</time>
      </trkpt>
      <trkpt lat="51.413134513422847" lon="4.388529136776924">
        <ele>-11.449999999999999</ele>
        <time>2021-08-08T10:22:19Z</time>
      </trkpt>
      <trkpt lat="51.413332326337695" lon="4.388373652473092">
        <ele>-11.42</ele>
        <time>2021-08-08T10:22:33Z</time>
      </trkpt>
      <trkpt lat="51.413422767072916" lon="4.388311039656401">
        <ele>-11.390000000000001</ele>
        <time>2021-08-08T10:22:41Z</time>
      </trkpt>
      <trkpt lat="51.413432573899627" lon="4.388319086283445">
        <ele>-11.390000000000001</ele>
        <time>2021-08-08T10:22:42Z</time>
      </trkpt>
      <trkpt lat="51.413721665740013" lon="4.388174246996641">
        <ele>-11.289999999999999</ele>
        <time>2021-08-08T10:23:00Z</time>
      </trkpt>
      <trkpt lat="51.413761479780078" lon="4.388134768232703">
        <ele>-11.279999999999999</ele>
        <time>2021-08-08T10:23:03Z</time>
      </trkpt>
      <trkpt lat="51.413816381245852" lon="4.38810920342803">
        <ele>-11.27</ele>
        <time>2021-08-08T10:23:07Z</time>
      </trkpt>
      <trkpt lat="51.414051745086908" lon="4.387941481545568">
        <ele>-11.15</ele>
        <time>2021-08-08T10:23:28Z</time>
      </trkpt>
      <trkpt lat="51.414085607975721" lon="4.387901667505503">
        <ele>-11.130000000000001</ele>
        <time>2021-08-08T10:23:32Z</time>
      </trkpt>
      <trkpt lat="51.414136067032814" lon="4.387890603393316">
        <ele>-11.130000000000001</ele>
        <time>2021-08-08T10:23:34Z</time>
      </trkpt>
      <trkpt lat="51.414268501102924" lon="4.387820865958929">
        <ele>-11.08</ele>
        <time>2021-08-08T10:23:42Z</time>
      </trkpt>
      <trkpt lat="51.414477545768023" lon="4.387696562334895">
        <ele>-11.01</ele>
        <time>2021-08-08T10:23:52Z</time>
      </trkpt>
      <trkpt lat="51.414514174684882" lon="4.387680552899838">
        <ele>-11.01</ele>
        <time>2021-08-08T10:23:53Z</time>
      </trkpt>
      <trkpt lat="51.414531609043479" lon="4.387671332806349">
        <ele>-11</ele>
        <time>2021-08-08T10:23:54Z</time>
      </trkpt>
      <trkpt lat="51.414542002603412" lon="4.387666303664446">
        <ele>-10.99</ele>
        <time>2021-08-08T10:23:55Z</time>
      </trkpt>
      <trkpt lat="51.41456002369523" lon="4.387651216238737">
        <ele>-10.98</ele>
        <time>2021-08-08T10:23:57Z</time>
      </trkpt>
      <trkpt lat="51.414740066975355" lon="4.387491792440414">
        <ele>-10.9</ele>
        <time>2021-08-08T10:24:09Z</time>
      </trkpt>
      <trkpt lat="51.414799159392715" lon="4.387412331998348">
        <ele>-10.880000000000001</ele>
        <time>2021-08-08T10:24:14Z</time>
      </trkpt>
      <trkpt lat="51.414956152439117" lon="4.387304875999689">
        <ele>-10.720000000000001</ele>
        <time>2021-08-08T10:24:31Z</time>
      </trkpt>
      <trkpt lat="51.415258320048451" lon="4.3871436920017">
        <ele>-10.699999999999999</ele>
        <time>2021-08-08T10:24:51Z</time>
      </trkpt>
      <trkpt lat="51.415393268689513" lon="4.38706062734127">
        <ele>-13.75</ele>
        <time>2021-08-08T10:25:03Z</time>
      </trkpt>
      <trkpt lat="51.415504748001695" lon="4.386975551024079">
        <ele>-13.56</ele>
        <time>2021-08-08T10:25:10Z</time>
      </trkpt>
      <trkpt lat="51.415704740211368" lon="4.386839177459478">
        <ele>-13.470000000000001</ele>
        <time>2021-08-08T10:25:22Z</time>
      </trkpt>
      <trkpt lat="51.415889309719205" lon="4.386752927675843">
        <ele>-13.42</ele>
        <time>2021-08-08T10:25:33Z</time>
      </trkpt>
      <trkpt lat="51.416056612506509" lon="4.386622421443462">
        <ele>-13.34</ele>
        <time>2021-08-08T10:25:49Z</time>
      </trkpt>
      <trkpt lat="51.416375460103154" lon="4.386430894955993">
        <ele>-13.220000000000001</ele>
        <time>2021-08-08T10:26:09Z</time>
      </trkpt>
      <trkpt lat="51.416598670184612" lon="4.38630374148488">
        <ele>-13.19</ele>
        <time>2021-08-08T10:26:26Z</time>
      </trkpt>
      <trkpt lat="51.416912991553545" lon="4.386077262461186">
        <ele>-13.16</ele>
        <time>2021-08-08T10:26:44Z</time>
      </trkpt>
      <trkpt lat="51.417175261303782" lon="4.385938122868538">
        <ele>-13.1</ele>
        <time>2021-08-08T10:27:02Z</time>
      </trkpt>
      <trkpt lat="51.417414313182235" lon="4.385803258046508">
        <ele>-13.1</ele>
        <time>2021-08-08T10:27:18Z</time>
      </trkpt>
      <trkpt lat="51.417505592107773" lon="4.385708793997765">
        <ele>-10.73</ele>
        <time>2021-08-08T10:27:30Z</time>
      </trkpt>
      <trkpt lat="51.417850172147155" lon="4.385561775416136">
        <ele>-10</ele>
        <time>2021-08-08T10:27:48Z</time>
      </trkpt>
      <trkpt lat="51.418125601485372" lon="4.385399920865893">
        <ele>-9.960000000000001</ele>
        <time>2021-08-08T10:28:05Z</time>
      </trkpt>
      <trkpt lat="51.418356103822589" lon="4.385220967233181">
        <ele>-9.9</ele>
        <time>2021-08-08T10:28:26Z</time>
      </trkpt>
      <trkpt lat="51.418567495420575" lon="4.385124910622835">
        <ele>-9.83</ele>
        <time>2021-08-08T10:28:43Z</time>
      </trkpt>
      <trkpt lat="51.418763380497694" lon="4.385017035529017">
        <ele>-9.74</ele>
        <time>2021-08-08T10:28:55Z</time>
      </trkpt>
      <trkpt lat="51.419144924730062" lon="4.384779743850231">
        <ele>-9.73</ele>
        <time>2021-08-08T10:29:18Z</time>
      </trkpt>
      <trkpt lat="51.419230084866285" lon="4.384717298671603">
        <ele>-9.74</ele>
        <time>2021-08-08T10:29:21Z</time>
      </trkpt>
      <trkpt lat="51.419405434280634" lon="4.384581847116351">
        <ele>-12.06</ele>
        <time>2021-08-08T10:29:31Z</time>
      </trkpt>
      <trkpt lat="51.419647503644228" lon="4.384432397782803">
        <ele>-12.039999999999999</ele>
        <time>2021-08-08T10:29:47Z</time>
      </trkpt>
      <trkpt lat="51.41978295519948" lon="4.384261658415198">
        <ele>-12.029999999999999</ele>
        <time>2021-08-08T10:29:57Z</time>
      </trkpt>
      <trkpt lat="51.420004237443209" lon="4.384080190211535">
        <ele>-12.85</ele>
        <time>2021-08-08T10:30:11Z</time>
      </trkpt>
      <trkpt lat="51.420197607949376" lon="4.383822027593851">
        <ele>-13.77</ele>
        <time>2021-08-08T10:30:25Z</time>
      </trkpt>
      <trkpt lat="51.420240271836519" lon="4.383788499981165">
        <ele>-13.779999999999999</ele>
        <time>2021-08-08T10:30:28Z</time>
      </trkpt>
      <trkpt lat="51.420310847461224" lon="4.383668303489685">
        <ele>-13.85</ele>
        <time>2021-08-08T10:30:37Z</time>
      </trkpt>
      <trkpt lat="51.42052031122148" lon="4.38336219638586">
        <ele>-14.01</ele>
        <time>2021-08-08T10:30:54Z</time>
      </trkpt>
      <trkpt lat="51.420601783320308" lon="4.382955338805914">
        <ele>-14.24</ele>
        <time>2021-08-08T10:31:12Z</time>
      </trkpt>
      <trkpt lat="51.420854832977057" lon="4.382193256169558">
        <ele>-15.67</ele>
        <time>2021-08-08T10:31:52Z</time>
      </trkpt>
      <trkpt lat="51.42096346244216" lon="4.382025450468063">
        <ele>-15.81</ele>
        <time>2021-08-08T10:32:00Z</time>
      </trkpt>
      <trkpt lat="51.421047197654843" lon="4.381827972829342">
        <ele>-16.870000000000001</ele>
        <time>2021-08-08T10:32:09Z</time>
      </trkpt>
      <trkpt lat="51.42139395698905" lon="4.38111986964941">
        <ele>-17.559999999999999</ele>
        <time>2021-08-08T10:32:43Z</time>
      </trkpt>
      <trkpt lat="51.421482469886541" lon="4.380840919911861">
        <ele>-17.93</ele>
        <time>2021-08-08T10:33:01Z</time>
      </trkpt>
      <trkpt lat="51.421639127656817" lon="4.380501788109541">
        <ele>-18.350000000000001</ele>
        <time>2021-08-08T10:33:20Z</time>
      </trkpt>
      <trkpt lat="51.421692604199052" lon="4.380370611324906">
        <ele>-18.48</ele>
        <time>2021-08-08T10:33:26Z</time>
      </trkpt>
      <trkpt lat="51.421908522024751" lon="4.380109598860145">
        <ele>-18.800000000000001</ele>
        <time>2021-08-08T10:33:41Z</time>
      </trkpt>
      <trkpt lat="51.422215970233083" lon="4.380041873082519">
        <ele>-18.960000000000001</ele>
        <time>2021-08-08T10:33:49Z</time>
      </trkpt>
      <trkpt lat="51.422241032123566" lon="4.380040280520916">
        <ele>-18.98</ele>
        <time>2021-08-08T10:33:50Z</time>
      </trkpt>
      <trkpt lat="51.422317223623395" lon="4.380052853375673">
        <ele>-19.039999999999999</ele>
        <time>2021-08-08T10:33:53Z</time>
      </trkpt>
      <trkpt lat="51.422347817569971" lon="4.380061738193035">
        <ele>-19.050000000000001</ele>
        <time>2021-08-08T10:33:54Z</time>
      </trkpt>
      <trkpt lat="51.422374807298183" lon="4.380072886124253">
        <ele>-19.07</ele>
        <time>2021-08-08T10:33:55Z</time>
      </trkpt>
      <trkpt lat="51.422404395416379" lon="4.380078753456473">
        <ele>-19.09</ele>
        <time>2021-08-08T10:33:56Z</time>
      </trkpt>
      <trkpt lat="51.422422835603356" lon="4.380090571939945">
        <ele>-19.109999999999999</ele>
        <time>2021-08-08T10:33:57Z</time>
      </trkpt>
      <trkpt lat="51.42245477065444" lon="4.380101384595037">
        <ele>-19.129999999999999</ele>
        <time>2021-08-08T10:33:58Z</time>
      </trkpt>
      <trkpt lat="51.422549989074469" lon="4.380113203078508">
        <ele>-19.190000000000001</ele>
        <time>2021-08-08T10:34:02Z</time>
      </trkpt>
      <trkpt lat="51.422580750659108" lon="4.38012694939971">
        <ele>-19.219999999999999</ele>
        <time>2021-08-08T10:34:04Z</time>
      </trkpt>
      <trkpt lat="51.422599945217371" lon="4.380136504769325">
        <ele>-19.239999999999998</ele>
        <time>2021-08-08T10:34:05Z</time>
      </trkpt>
      <trkpt lat="51.422731205821037" lon="4.380243541672826">
        <ele>-19.370000000000001</ele>
        <time>2021-08-08T10:34:15Z</time>
      </trkpt>
      <trkpt lat="51.423309305682778" lon="4.380773613229394">
        <ele>-19.609999999999999</ele>
        <time>2021-08-08T10:34:49Z</time>
      </trkpt>
      <trkpt lat="51.423560678958893" lon="4.381011994555593">
        <ele>-19.68</ele>
        <time>2021-08-08T10:35:08Z</time>
      </trkpt>
      <trkpt lat="51.424012966454029" lon="4.381648683920503">
        <ele>-19.68</ele>
        <time>2021-08-08T10:35:42Z</time>
      </trkpt>
      <trkpt lat="51.424212204292417" lon="4.381971303373575">
        <ele>-19.670000000000002</ele>
        <time>2021-08-08T10:35:54Z</time>
      </trkpt>
      <trkpt lat="51.424277247861028" lon="4.382330635562539">
        <ele>-19.690000000000001</ele>
        <time>2021-08-08T10:36:08Z</time>
      </trkpt>
      <trkpt lat="51.424273559823632" lon="4.382467847317457">
        <ele>-19.66</ele>
        <time>2021-08-08T10:36:24Z</time>
      </trkpt>
      <trkpt lat="51.424298789352179" lon="4.382688794285059">
        <ele>11.16</ele>
        <time>2021-08-08T12:17:13Z</time>
      </trkpt>
    </trkseg>
  </trk>

</gpx>